<?xml version='1.0' encoding='utf-8'?>
<gpx xmlns="http://www.topografix.com/GPX/1/1" xmlns:xsi="http://www.w3.org/2001/XMLSchema-instance" version="v1.1.5" creator="iTravel Tech Inc. - http://www.itravel-tech.com" xsi:schemaLocation="http://www.topografix.com/GPX/1/1 http://www.topografix.com/GPX/1/1/gpx.xsd http://www.topografix.com/GPX/gpx_overlay/0/3 http://www.topografix.com/GPX/gpx_overlay/0/3/gpx_overlay.xsd http://www.topografix.com/GPX/gpx_modified/0/1 http://www.topografix.com/GPX/gpx_modified/0/1/gpx_modified.xsd">
<trk>
<name>Holux2012/05/03_01:48</name>
<trkseg>
<trkpt lat="42.666775" lon="18.975870">
<ele>379.8</ele>
<time>2012-05-02T22:48:05Z</time>
<desc>lat.=42.666775, lon.=18.975870, Alt.=389.636963m. Speed=69.335999m/h.</desc>
<speed>19.260000</speed>
</trkpt>
<trkpt lat="42.668098" lon="18.974310">
<ele>392.6</ele>
<time>2012-05-02T22:48:15Z</time>
<desc>lat.=42.668098, lon.=18.974310, Alt.=395.355713m. Speed=70.524002m/h.</desc>
<speed>19.590001</speed>
</trkpt>
<trkpt lat="42.668850" lon="18.973841">
<ele>400.8</ele>
<time>2012-05-02T22:48:20Z</time>
<desc>lat.=42.668850, lon.=18.973841, Alt.=400.347900m. Speed=65.052002m/h.</desc>
<speed>18.070001</speed>
</trkpt>
<trkpt lat="42.669601" lon="18.973663">
<ele>396.7</ele>
<time>2012-05-02T22:48:25Z</time>
<desc>lat.=42.669601, lon.=18.973663, Alt.=408.535400m. Speed=63.216000m/h.</desc>
<speed>17.560000</speed>
</trkpt>
<trkpt lat="42.670391" lon="18.973747">
<ele>395.1</ele>
<time>2012-05-02T22:48:30Z</time>
<desc>lat.=42.670391, lon.=18.973747, Alt.=413.238525m. Speed=65.087997m/h.</desc>
<speed>18.079999</speed>
</trkpt>
<trkpt lat="42.673752" lon="18.975636">
<ele>406.5</ele>
<time>2012-05-02T22:48:50Z</time>
<desc>lat.=42.673752, lon.=18.975636, Alt.=422.129150m. Speed=72.396004m/h.</desc>
<speed>20.110001</speed>
</trkpt>
<trkpt lat="42.674686" lon="18.975832">
<ele>420.2</ele>
<time>2012-05-02T22:48:55Z</time>
<desc>lat.=42.674686, lon.=18.975832, Alt.=421.496338m. Speed=68.975998m/h.</desc>
<speed>19.159999</speed>
</trkpt>
<trkpt lat="42.675659" lon="18.975807">
<ele>408.8</ele>
<time>2012-05-02T22:49:00Z</time>
<desc>lat.=42.675659, lon.=18.975807, Alt.=422.988525m. Speed=77.003998m/h.</desc>
<speed>21.389999</speed>
</trkpt>
<trkpt lat="42.676605" lon="18.975521">
<ele>410.8</ele>
<time>2012-05-02T22:49:05Z</time>
<desc>lat.=42.676605, lon.=18.975521, Alt.=424.121338m. Speed=77.328003m/h.</desc>
<speed>21.480001</speed>
</trkpt>
<trkpt lat="42.677422" lon="18.975018">
<ele>404.5</ele>
<time>2012-05-02T22:49:10Z</time>
<desc>lat.=42.677422, lon.=18.975018, Alt.=424.855713m. Speed=68.940002m/h.</desc>
<speed>19.150001</speed>
</trkpt>
<trkpt lat="42.678638" lon="18.973602">
<ele>411.5</ele>
<time>2012-05-02T22:49:20Z</time>
<desc>lat.=42.678638, lon.=18.973602, Alt.=427.957275m. Speed=67.283997m/h.</desc>
<speed>18.689999</speed>
</trkpt>
<trkpt lat="42.679127" lon="18.972591">
<ele>412.4</ele>
<time>2012-05-02T22:49:25Z</time>
<desc>lat.=42.679127, lon.=18.972591, Alt.=429.332275m. Speed=74.592003m/h.</desc>
<speed>20.720001</speed>
</trkpt>
<trkpt lat="42.680038" lon="18.968763">
<ele>427.1</ele>
<time>2012-05-02T22:49:40Z</time>
<desc>lat.=42.680038, lon.=18.968763, Alt.=434.832275m. Speed=80.388000m/h.</desc>
<speed>22.330000</speed>
</trkpt>
<trkpt lat="42.680931" lon="18.966326">
<ele>435.9</ele>
<time>2012-05-02T22:49:50Z</time>
<desc>lat.=42.680931, lon.=18.966326, Alt.=439.035400m. Speed=79.524002m/h.</desc>
<speed>22.090001</speed>
</trkpt>
<trkpt lat="42.681580" lon="18.965258">
<ele>436.5</ele>
<time>2012-05-02T22:49:55Z</time>
<desc>lat.=42.681580, lon.=18.965258, Alt.=443.801025m. Speed=80.603996m/h.</desc>
<speed>22.389999</speed>
</trkpt>
<trkpt lat="42.682369" lon="18.964394">
<ele>444.1</ele>
<time>2012-05-02T22:50:00Z</time>
<desc>lat.=42.682369, lon.=18.964394, Alt.=447.285400m. Speed=82.080002m/h.</desc>
<speed>22.800001</speed>
</trkpt>
<trkpt lat="42.684151" lon="18.963285">
<ele>459.6</ele>
<time>2012-05-02T22:50:10Z</time>
<desc>lat.=42.684151, lon.=18.963285, Alt.=456.254150m. Speed=82.043999m/h.</desc>
<speed>22.790000</speed>
</trkpt>
<trkpt lat="42.687267" lon="18.962791">
<ele>456.3</ele>
<time>2012-05-02T22:50:25Z</time>
<desc>lat.=42.687267, lon.=18.962791, Alt.=468.668213m. Speed=78.480003m/h.</desc>
<speed>21.800001</speed>
</trkpt>
<trkpt lat="42.689117" lon="18.961794">
<ele>465.0</ele>
<time>2012-05-02T22:50:35Z</time>
<desc>lat.=42.689117, lon.=18.961794, Alt.=479.082275m. Speed=82.008003m/h.</desc>
<speed>22.780001</speed>
</trkpt>
<trkpt lat="42.691044" lon="18.961155">
<ele>485.6</ele>
<time>2012-05-02T22:50:45Z</time>
<desc>lat.=42.691044, lon.=18.961155, Alt.=488.551025m. Speed=77.615997m/h.</desc>
<speed>21.559999</speed>
</trkpt>
<trkpt lat="42.692940" lon="18.961124">
<ele>478.5</ele>
<time>2012-05-02T22:50:55Z</time>
<desc>lat.=42.692940, lon.=18.961124, Alt.=493.051025m. Speed=78.120003m/h.</desc>
<speed>21.700001</speed>
</trkpt>
<trkpt lat="42.694916" lon="18.961596">
<ele>498.9</ele>
<time>2012-05-02T22:51:05Z</time>
<desc>lat.=42.694916, lon.=18.961596, Alt.=498.847900m. Speed=82.835999m/h.</desc>
<speed>23.010000</speed>
</trkpt>
<trkpt lat="42.697403" lon="18.961775">
<ele>495.2</ele>
<time>2012-05-02T22:51:17Z</time>
<desc>lat.=42.697403, lon.=18.961775, Alt.=509.613525m. Speed=81.972000m/h.</desc>
<speed>22.770000</speed>
</trkpt>
<trkpt lat="42.699558" lon="18.961470">
<ele>502.4</ele>
<time>2012-05-02T22:51:27Z</time>
<desc>lat.=42.699558, lon.=18.961470, Alt.=524.758301m. Speed=84.348000m/h.</desc>
<speed>23.430000</speed>
</trkpt>
<trkpt lat="42.701576" lon="18.960815">
<ele>517.0</ele>
<time>2012-05-02T22:51:37Z</time>
<desc>lat.=42.701576, lon.=18.960815, Alt.=534.773926m. Speed=83.664001m/h.</desc>
<speed>23.240000</speed>
</trkpt>
<trkpt lat="42.704689" lon="18.960545">
<ele>536.4</ele>
<time>2012-05-02T22:51:52Z</time>
<desc>lat.=42.704689, lon.=18.960545, Alt.=540.555176m. Speed=84.096001m/h.</desc>
<speed>23.360000</speed>
</trkpt>
<trkpt lat="42.705715" lon="18.960081">
<ele>543.4</ele>
<time>2012-05-02T22:51:57Z</time>
<desc>lat.=42.705715, lon.=18.960081, Alt.=547.664551m. Speed=88.164001m/h.</desc>
<speed>24.490000</speed>
</trkpt>
<trkpt lat="42.706596" lon="18.959215">
<ele>537.8</ele>
<time>2012-05-02T22:52:02Z</time>
<desc>lat.=42.706596, lon.=18.959215, Alt.=553.523926m. Speed=87.875999m/h.</desc>
<speed>24.410000</speed>
</trkpt>
<trkpt lat="42.708584" lon="18.955544">
<ele>550.3</ele>
<time>2012-05-02T22:52:17Z</time>
<desc>lat.=42.708584, lon.=18.955544, Alt.=559.742676m. Speed=89.568001m/h.</desc>
<speed>24.880000</speed>
</trkpt>
<trkpt lat="42.710068" lon="18.953247">
<ele>559.4</ele>
<time>2012-05-02T22:52:27Z</time>
<desc>lat.=42.710068, lon.=18.953247, Alt.=570.148926m. Speed=87.875999m/h.</desc>
<speed>24.410000</speed>
</trkpt>
<trkpt lat="42.710880" lon="18.952295">
<ele>562.8</ele>
<time>2012-05-02T22:52:32Z</time>
<desc>lat.=42.710880, lon.=18.952295, Alt.=573.883301m. Speed=86.292000m/h.</desc>
<speed>23.970000</speed>
</trkpt>
<trkpt lat="42.714546" lon="18.949131">
<ele>580.7</ele>
<time>2012-05-02T22:52:52Z</time>
<desc>lat.=42.714546, lon.=18.949131, Alt.=589.492676m. Speed=90.575996m/h.</desc>
<speed>25.159999</speed>
</trkpt>
<trkpt lat="42.716969" lon="18.945730">
<ele>593.5</ele>
<time>2012-05-02T22:53:07Z</time>
<desc>lat.=42.716969, lon.=18.945730, Alt.=603.305176m. Speed=93.924004m/h.</desc>
<speed>26.090001</speed>
</trkpt>
<trkpt lat="42.719601" lon="18.942791">
<ele>610.1</ele>
<time>2012-05-02T22:53:22Z</time>
<desc>lat.=42.719601, lon.=18.942791, Alt.=612.930176m. Speed=87.875999m/h.</desc>
<speed>24.410000</speed>
</trkpt>
<trkpt lat="42.722351" lon="18.940533">
<ele>679.8</ele>
<time>2012-05-02T22:53:37Z</time>
<desc>lat.=42.722351, lon.=18.940533, Alt.=621.742676m. Speed=85.139999m/h.</desc>
<speed>23.650000</speed>
</trkpt>
<trkpt lat="42.730865" lon="18.936895">
<ele>637.2</ele>
<time>2012-05-02T22:54:33Z</time>
<desc>lat.=42.730865, lon.=18.936895, Alt.=695.789551m. Speed=64.152000m/h.</desc>
<speed>17.820000</speed>
</trkpt>
<trkpt lat="42.731995" lon="18.937204">
<ele>616.5</ele>
<time>2012-05-02T22:54:38Z</time>
<desc>lat.=42.731995, lon.=18.937204, Alt.=632.789551m. Speed=75.096001m/h.</desc>
<speed>20.860000</speed>
</trkpt>
<trkpt lat="42.738041" lon="18.937407">
<ele>608.0</ele>
<time>2012-05-02T22:55:08Z</time>
<desc>lat.=42.738041, lon.=18.937407, Alt.=616.305176m. Speed=81.216003m/h.</desc>
<speed>22.560001</speed>
</trkpt>
<trkpt lat="42.741032" lon="18.937773">
<ele>608.9</ele>
<time>2012-05-02T22:55:23Z</time>
<desc>lat.=42.741032, lon.=18.937773, Alt.=616.023926m. Speed=76.463997m/h.</desc>
<speed>21.239999</speed>
</trkpt>
<trkpt lat="42.743687" lon="18.938396">
<ele>611.4</ele>
<time>2012-05-02T22:55:38Z</time>
<desc>lat.=42.743687, lon.=18.938396, Alt.=616.789551m. Speed=68.832001m/h.</desc>
<speed>19.120000</speed>
</trkpt>
<trkpt lat="42.749619" lon="18.940239">
<ele>612.0</ele>
<time>2012-05-02T22:56:18Z</time>
<desc>lat.=42.749619, lon.=18.940239, Alt.=620.273926m. Speed=64.188004m/h.</desc>
<speed>17.830001</speed>
</trkpt>
<trkpt lat="42.753399" lon="18.940924">
<ele>617.2</ele>
<time>2012-05-02T22:56:43Z</time>
<desc>lat.=42.753399, lon.=18.940924, Alt.=627.148926m. Speed=58.391998m/h.</desc>
<speed>16.220000</speed>
</trkpt>
<trkpt lat="42.754883" lon="18.940809">
<ele>619.8</ele>
<time>2012-05-02T22:56:53Z</time>
<desc>lat.=42.754883, lon.=18.940809, Alt.=628.852051m. Speed=62.279999m/h.</desc>
<speed>17.300000</speed>
</trkpt>
<trkpt lat="42.757847" lon="18.939709">
<ele>622.1</ele>
<time>2012-05-02T22:57:13Z</time>
<desc>lat.=42.757847, lon.=18.939709, Alt.=638.602051m. Speed=58.680000m/h.</desc>
<speed>16.300000</speed>
</trkpt>
<trkpt lat="42.759987" lon="18.939381">
<ele>628.0</ele>
<time>2012-05-02T22:57:28Z</time>
<desc>lat.=42.759987, lon.=18.939381, Alt.=640.227051m. Speed=57.852001m/h.</desc>
<speed>16.070000</speed>
</trkpt>
<trkpt lat="42.761406" lon="18.939537">
<ele>632.5</ele>
<time>2012-05-02T22:57:38Z</time>
<desc>lat.=42.761406, lon.=18.939537, Alt.=641.258301m. Speed=55.439999m/h.</desc>
<speed>15.400000</speed>
</trkpt>
<trkpt lat="42.766441" lon="18.940975">
<ele>642.1</ele>
<time>2012-05-02T22:58:13Z</time>
<desc>lat.=42.766441, lon.=18.940975, Alt.=650.742676m. Speed=66.204002m/h.</desc>
<speed>18.390001</speed>
</trkpt>
<trkpt lat="42.769058" lon="18.940958">
<ele>654.3</ele>
<time>2012-05-02T22:58:28Z</time>
<desc>lat.=42.769058, lon.=18.940958, Alt.=657.820801m. Speed=73.800003m/h.</desc>
<speed>20.500001</speed>
</trkpt>
<trkpt lat="42.771790" lon="18.940399">
<ele>656.2</ele>
<time>2012-05-02T22:58:43Z</time>
<desc>lat.=42.771790, lon.=18.940399, Alt.=663.555176m. Speed=69.444000m/h.</desc>
<speed>19.290000</speed>
</trkpt>
<trkpt lat="42.773506" lon="18.939793">
<ele>645.6</ele>
<time>2012-05-02T22:58:53Z</time>
<desc>lat.=42.773506, lon.=18.939793, Alt.=659.945801m. Speed=75.924004m/h.</desc>
<speed>21.090001</speed>
</trkpt>
<trkpt lat="42.776798" lon="18.936832">
<ele>641.1</ele>
<time>2012-05-02T22:59:13Z</time>
<desc>lat.=42.776798, lon.=18.936832, Alt.=656.930176m. Speed=77.472000m/h.</desc>
<speed>21.520000</speed>
</trkpt>
<trkpt lat="42.780273" lon="18.934523">
<ele>634.7</ele>
<time>2012-05-02T22:59:33Z</time>
<desc>lat.=42.780273, lon.=18.934523, Alt.=656.789551m. Speed=76.248001m/h.</desc>
<speed>21.180000</speed>
</trkpt>
<trkpt lat="42.780956" lon="18.933638">
<ele>637.3</ele>
<time>2012-05-02T22:59:38Z</time>
<desc>lat.=42.780956, lon.=18.933638, Alt.=656.133301m. Speed=75.456001m/h.</desc>
<speed>20.960000</speed>
</trkpt>
<trkpt lat="42.781418" lon="18.932528">
<ele>640.6</ele>
<time>2012-05-02T22:59:43Z</time>
<desc>lat.=42.781418, lon.=18.932528, Alt.=653.305176m. Speed=74.879997m/h.</desc>
<speed>20.799999</speed>
</trkpt>
<trkpt lat="42.782085" lon="18.930155">
<ele>640.8</ele>
<time>2012-05-02T22:59:53Z</time>
<desc>lat.=42.782085, lon.=18.930155, Alt.=649.117676m. Speed=72.575996m/h.</desc>
<speed>20.159999</speed>
</trkpt>
<trkpt lat="42.782593" lon="18.929230">
<ele>643.0</ele>
<time>2012-05-02T22:59:58Z</time>
<desc>lat.=42.782593, lon.=18.929230, Alt.=648.008301m. Speed=62.459999m/h.</desc>
<speed>17.350000</speed>
</trkpt>
<trkpt lat="42.783184" lon="18.928656">
<ele>635.1</ele>
<time>2012-05-02T23:00:03Z</time>
<desc>lat.=42.783184, lon.=18.928656, Alt.=646.352051m. Speed=57.240002m/h.</desc>
<speed>15.900000</speed>
</trkpt>
<trkpt lat="42.784683" lon="18.928288">
<ele>624.3</ele>
<time>2012-05-02T23:00:13Z</time>
<desc>lat.=42.784683, lon.=18.928288, Alt.=640.648926m. Speed=64.620003m/h.</desc>
<speed>17.950001</speed>
</trkpt>
<trkpt lat="42.789436" lon="18.928347">
<ele>625.4</ele>
<time>2012-05-02T23:00:43Z</time>
<desc>lat.=42.789436, lon.=18.928347, Alt.=630.102051m. Speed=62.784000m/h.</desc>
<speed>17.440000</speed>
</trkpt>
<trkpt lat="42.790188" lon="18.928026">
<ele>621.6</ele>
<time>2012-05-02T23:00:48Z</time>
<desc>lat.=42.790188, lon.=18.928026, Alt.=630.289551m. Speed=64.223999m/h.</desc>
<speed>17.840000</speed>
</trkpt>
<trkpt lat="42.793587" lon="18.924738">
<ele>620.3</ele>
<time>2012-05-02T23:01:18Z</time>
<desc>lat.=42.793587, lon.=18.924738, Alt.=636.055176m. Speed=32.652000m/h.</desc>
<speed>9.070000</speed>
</trkpt>
<trkpt lat="42.794296" lon="18.925035">
<ele>620.3</ele>
<time>2012-05-02T23:01:28Z</time>
<desc>lat.=42.794296, lon.=18.925035, Alt.=634.648926m. Speed=20.304001m/h.</desc>
<speed>5.640000</speed>
</trkpt>
<trkpt lat="42.794510" lon="18.925579">
<ele>620.7</ele>
<time>2012-05-02T23:01:38Z</time>
<desc>lat.=42.794510, lon.=18.925579, Alt.=632.867676m. Speed=30.743999m/h.</desc>
<speed>8.540000</speed>
</trkpt>
<trkpt lat="42.793331" lon="18.929064">
<ele>622.4</ele>
<time>2012-05-02T23:02:03Z</time>
<desc>lat.=42.793331, lon.=18.929064, Alt.=628.367676m. Speed=51.228001m/h.</desc>
<speed>14.230000</speed>
</trkpt>
<trkpt lat="42.792610" lon="18.932207">
<ele>621.9</ele>
<time>2012-05-02T23:02:23Z</time>
<desc>lat.=42.792610, lon.=18.932207, Alt.=629.586426m. Speed=44.964001m/h.</desc>
<speed>12.490000</speed>
</trkpt>
<trkpt lat="42.792736" lon="18.932932">
<ele>619.9</ele>
<time>2012-05-02T23:02:28Z</time>
<desc>lat.=42.792736, lon.=18.932932, Alt.=627.883301m. Speed=48.888000m/h.</desc>
<speed>13.580000</speed>
</trkpt>
<trkpt lat="42.793564" lon="18.934013">
<ele>620.8</ele>
<time>2012-05-02T23:02:38Z</time>
<desc>lat.=42.793564, lon.=18.934013, Alt.=629.055176m. Speed=36.827999m/h.</desc>
<speed>10.230000</speed>
</trkpt>
<trkpt lat="42.793781" lon="18.934559">
<ele>621.0</ele>
<time>2012-05-02T23:02:48Z</time>
<desc>lat.=42.793781, lon.=18.934559, Alt.=630.164551m. Speed=19.944000m/h.</desc>
<speed>5.540000</speed>
</trkpt>
<trkpt lat="42.794098" lon="18.934656">
<ele>621.1</ele>
<time>2012-05-02T23:02:53Z</time>
<desc>lat.=42.794098, lon.=18.934656, Alt.=630.508301m. Speed=25.128000m/h.</desc>
<speed>6.980000</speed>
</trkpt>
<trkpt lat="42.794853" lon="18.935440">
<ele>619.3</ele>
<time>2012-05-02T23:03:03Z</time>
<desc>lat.=42.794853, lon.=18.935440, Alt.=631.930176m. Speed=45.756001m/h.</desc>
<speed>12.710000</speed>
</trkpt>
<trkpt lat="42.796146" lon="18.935801">
<ele>619.4</ele>
<time>2012-05-02T23:03:13Z</time>
<desc>lat.=42.796146, lon.=18.935801, Alt.=631.930176m. Speed=58.428001m/h.</desc>
<speed>16.230000</speed>
</trkpt>
<trkpt lat="42.797543" lon="18.935747">
<ele>619.3</ele>
<time>2012-05-02T23:03:23Z</time>
<desc>lat.=42.797543, lon.=18.935747, Alt.=629.992676m. Speed=54.827999m/h.</desc>
<speed>15.230000</speed>
</trkpt>
<trkpt lat="42.801517" lon="18.934927">
<ele>619.8</ele>
<time>2012-05-02T23:03:53Z</time>
<desc>lat.=42.801517, lon.=18.934927, Alt.=634.602051m. Speed=53.136002m/h.</desc>
<speed>14.760000</speed>
</trkpt>
<trkpt lat="42.802780" lon="18.934433">
<ele>620.6</ele>
<time>2012-05-02T23:04:03Z</time>
<desc>lat.=42.802780, lon.=18.934433, Alt.=634.367676m. Speed=52.776001m/h.</desc>
<speed>14.660000</speed>
</trkpt>
<trkpt lat="42.806320" lon="18.932077">
<ele>621.4</ele>
<time>2012-05-02T23:04:38Z</time>
<desc>lat.=42.806320, lon.=18.932077, Alt.=642.039551m. Speed=51.192001m/h.</desc>
<speed>14.220000</speed>
</trkpt>
<trkpt lat="42.806866" lon="18.931555">
<ele>620.7</ele>
<time>2012-05-02T23:04:43Z</time>
<desc>lat.=42.806866, lon.=18.931555, Alt.=640.648926m. Speed=56.880001m/h.</desc>
<speed>15.800000</speed>
</trkpt>
<trkpt lat="42.808220" lon="18.929213">
<ele>619.6</ele>
<time>2012-05-02T23:04:58Z</time>
<desc>lat.=42.808220, lon.=18.929213, Alt.=637.570801m. Speed=57.240002m/h.</desc>
<speed>15.900000</speed>
</trkpt>
<trkpt lat="42.809742" lon="18.927359">
<ele>618.7</ele>
<time>2012-05-02T23:05:13Z</time>
<desc>lat.=42.809742, lon.=18.927359, Alt.=637.477051m. Speed=48.240002m/h.</desc>
<speed>13.400000</speed>
</trkpt>
<trkpt lat="42.810307" lon="18.926105">
<ele>618.9</ele>
<time>2012-05-02T23:05:23Z</time>
<desc>lat.=42.810307, lon.=18.926105, Alt.=635.242676m. Speed=34.271999m/h.</desc>
<speed>9.520000</speed>
</trkpt>
<trkpt lat="42.810589" lon="18.925793">
<ele>619.2</ele>
<time>2012-05-02T23:05:28Z</time>
<desc>lat.=42.810589, lon.=18.925793, Alt.=637.055176m. Speed=29.268000m/h.</desc>
<speed>8.130000</speed>
</trkpt>
<trkpt lat="42.811401" lon="18.925842">
<ele>618.6</ele>
<time>2012-05-02T23:05:38Z</time>
<desc>lat.=42.811401, lon.=18.925842, Alt.=635.336426m. Speed=33.408001m/h.</desc>
<speed>9.280000</speed>
</trkpt>
<trkpt lat="42.813454" lon="18.923668">
<ele>619.1</ele>
<time>2012-05-02T23:05:58Z</time>
<desc>lat.=42.813454, lon.=18.923668, Alt.=634.727051m. Speed=60.408001m/h.</desc>
<speed>16.780000</speed>
</trkpt>
<trkpt lat="42.823326" lon="18.915529">
<ele>624.6</ele>
<time>2012-05-02T23:07:13Z</time>
<desc>lat.=42.823326, lon.=18.915529, Alt.=641.289551m. Speed=54.720001m/h.</desc>
<speed>15.200000</speed>
</trkpt>
<trkpt lat="42.823971" lon="18.915613">
<ele>624.5</ele>
<time>2012-05-02T23:07:18Z</time>
<desc>lat.=42.823971, lon.=18.915613, Alt.=641.039551m. Speed=52.056000m/h.</desc>
<speed>14.460000</speed>
</trkpt>
<trkpt lat="42.830410" lon="18.919495">
<ele>626.6</ele>
<time>2012-05-02T23:08:08Z</time>
<desc>lat.=42.830410, lon.=18.919495, Alt.=642.102051m. Speed=47.987999m/h.</desc>
<speed>13.330000</speed>
</trkpt>
<trkpt lat="42.833942" lon="18.921175">
<ele>631.0</ele>
<time>2012-05-02T23:08:38Z</time>
<desc>lat.=42.833942, lon.=18.921175, Alt.=651.680176m. Speed=53.136002m/h.</desc>
<speed>14.760000</speed>
</trkpt>
<trkpt lat="42.836452" lon="18.922762">
<ele>631.3</ele>
<time>2012-05-02T23:08:58Z</time>
<desc>lat.=42.836452, lon.=18.922762, Alt.=652.570801m. Speed=56.448002m/h.</desc>
<speed>15.680001</speed>
</trkpt>
<trkpt lat="42.839664" lon="18.925268">
<ele>634.1</ele>
<time>2012-05-02T23:09:23Z</time>
<desc>lat.=42.839664, lon.=18.925268, Alt.=655.320801m. Speed=56.880001m/h.</desc>
<speed>15.800000</speed>
</trkpt>
<trkpt lat="42.843151" lon="18.928829">
<ele>641.0</ele>
<time>2012-05-02T23:09:53Z</time>
<desc>lat.=42.843151, lon.=18.928829, Alt.=662.133301m. Speed=56.484001m/h.</desc>
<speed>15.690000</speed>
</trkpt>
<trkpt lat="42.847248" lon="18.934326">
<ele>648.5</ele>
<time>2012-05-02T23:10:33Z</time>
<desc>lat.=42.847248, lon.=18.934326, Alt.=666.289551m. Speed=59.759998m/h.</desc>
<speed>16.600000</speed>
</trkpt>
<trkpt lat="42.849251" lon="18.935587">
<ele>651.2</ele>
<time>2012-05-02T23:10:48Z</time>
<desc>lat.=42.849251, lon.=18.935587, Alt.=670.477051m. Speed=59.327999m/h.</desc>
<speed>16.480000</speed>
</trkpt>
<trkpt lat="42.850403" lon="18.936869">
<ele>655.0</ele>
<time>2012-05-02T23:10:58Z</time>
<desc>lat.=42.850403, lon.=18.936869, Alt.=672.445801m. Speed=59.400002m/h.</desc>
<speed>16.500000</speed>
</trkpt>
<trkpt lat="42.851254" lon="18.938351">
<ele>656.6</ele>
<time>2012-05-02T23:11:08Z</time>
<desc>lat.=42.851254, lon.=18.938351, Alt.=673.961426m. Speed=48.456001m/h.</desc>
<speed>13.460000</speed>
</trkpt>
<trkpt lat="42.852894" lon="18.939491">
<ele>652.9</ele>
<time>2012-05-02T23:11:23Z</time>
<desc>lat.=42.852894, lon.=18.939491, Alt.=666.555176m. Speed=49.716000m/h.</desc>
<speed>13.810000</speed>
</trkpt>
<trkpt lat="42.853436" lon="18.940638">
<ele>650.8</ele>
<time>2012-05-02T23:11:33Z</time>
<desc>lat.=42.853436, lon.=18.940638, Alt.=663.352051m. Speed=44.028000m/h.</desc>
<speed>12.230000</speed>
</trkpt>
<trkpt lat="42.853592" lon="18.942179">
<ele>653.6</ele>
<time>2012-05-02T23:11:43Z</time>
<desc>lat.=42.853592, lon.=18.942179, Alt.=661.523926m. Speed=44.748001m/h.</desc>
<speed>12.430000</speed>
</trkpt>
<trkpt lat="42.853889" lon="18.942795">
<ele>651.0</ele>
<time>2012-05-02T23:11:48Z</time>
<desc>lat.=42.853889, lon.=18.942795, Alt.=660.898926m. Speed=44.172001m/h.</desc>
<speed>12.270000</speed>
</trkpt>
<trkpt lat="42.854416" lon="18.943110">
<ele>652.1</ele>
<time>2012-05-02T23:11:53Z</time>
<desc>lat.=42.854416, lon.=18.943110, Alt.=661.773926m. Speed=48.852001m/h.</desc>
<speed>13.570000</speed>
</trkpt>
<trkpt lat="42.855988" lon="18.943594">
<ele>659.8</ele>
<time>2012-05-02T23:12:08Z</time>
<desc>lat.=42.855988, lon.=18.943594, Alt.=669.352051m. Speed=27.360001m/h.</desc>
<speed>7.600000</speed>
</trkpt>
<trkpt lat="42.856564" lon="18.942984">
<ele>664.3</ele>
<time>2012-05-02T23:12:18Z</time>
<desc>lat.=42.856564, lon.=18.942984, Alt.=672.477051m. Speed=30.959999m/h.</desc>
<speed>8.600000</speed>
</trkpt>
<trkpt lat="42.856918" lon="18.942928">
<ele>667.2</ele>
<time>2012-05-02T23:12:23Z</time>
<desc>lat.=42.856918, lon.=18.942928, Alt.=673.367676m. Speed=34.776001m/h.</desc>
<speed>9.660000</speed>
</trkpt>
<trkpt lat="42.857388" lon="18.943167">
<ele>669.6</ele>
<time>2012-05-02T23:12:28Z</time>
<desc>lat.=42.857388, lon.=18.943167, Alt.=677.711426m. Speed=40.608002m/h.</desc>
<speed>11.280000</speed>
</trkpt>
<trkpt lat="42.857891" lon="18.943066">
<ele>668.4</ele>
<time>2012-05-02T23:12:33Z</time>
<desc>lat.=42.857891, lon.=18.943066, Alt.=682.461426m. Speed=44.028000m/h.</desc>
<speed>12.230000</speed>
</trkpt>
<trkpt lat="42.858292" lon="18.942513">
<ele>670.4</ele>
<time>2012-05-02T23:12:38Z</time>
<desc>lat.=42.858292, lon.=18.942513, Alt.=685.586426m. Speed=48.203999m/h.</desc>
<speed>13.390000</speed>
</trkpt>
<trkpt lat="42.859207" lon="18.940193">
<ele>682.4</ele>
<time>2012-05-02T23:12:53Z</time>
<desc>lat.=42.859207, lon.=18.940193, Alt.=697.992676m. Speed=52.776001m/h.</desc>
<speed>14.660000</speed>
</trkpt>
<trkpt lat="42.859711" lon="18.939648">
<ele>689.7</ele>
<time>2012-05-02T23:12:58Z</time>
<desc>lat.=42.859711, lon.=18.939648, Alt.=703.695801m. Speed=49.500000m/h.</desc>
<speed>13.750000</speed>
</trkpt>
<trkpt lat="42.861694" lon="18.939129">
<ele>708.5</ele>
<time>2012-05-02T23:13:13Z</time>
<desc>lat.=42.861694, lon.=18.939129, Alt.=717.664551m. Speed=59.183998m/h.</desc>
<speed>16.439999</speed>
</trkpt>
<trkpt lat="42.862335" lon="18.938675">
<ele>712.8</ele>
<time>2012-05-02T23:13:18Z</time>
<desc>lat.=42.862335, lon.=18.938675, Alt.=723.805176m. Speed=59.363998m/h.</desc>
<speed>16.490000</speed>
</trkpt>
<trkpt lat="42.862808" lon="18.937912">
<ele>715.9</ele>
<time>2012-05-02T23:13:23Z</time>
<desc>lat.=42.862808, lon.=18.937912, Alt.=727.977051m. Speed=58.860001m/h.</desc>
<speed>16.350000</speed>
</trkpt>
<trkpt lat="42.863071" lon="18.936991">
<ele>722.6</ele>
<time>2012-05-02T23:13:28Z</time>
<desc>lat.=42.863071, lon.=18.936991, Alt.=733.008301m. Speed=58.860001m/h.</desc>
<speed>16.350000</speed>
</trkpt>
<trkpt lat="42.863071" lon="18.935022">
<ele>728.5</ele>
<time>2012-05-02T23:13:38Z</time>
<desc>lat.=42.863071, lon.=18.935022, Alt.=742.602051m. Speed=50.976002m/h.</desc>
<speed>14.160000</speed>
</trkpt>
<trkpt lat="42.863365" lon="18.934460">
<ele>733.9</ele>
<time>2012-05-02T23:13:43Z</time>
<desc>lat.=42.863365, lon.=18.934460, Alt.=744.852051m. Speed=39.096001m/h.</desc>
<speed>10.860000</speed>
</trkpt>
<trkpt lat="42.866001" lon="18.933140">
<ele>733.3</ele>
<time>2012-05-02T23:14:03Z</time>
<desc>lat.=42.866001, lon.=18.933140, Alt.=752.430176m. Speed=64.332001m/h.</desc>
<speed>17.870000</speed>
</trkpt>
<trkpt lat="42.866798" lon="18.933132">
<ele>739.2</ele>
<time>2012-05-02T23:14:08Z</time>
<desc>lat.=42.866798, lon.=18.933132, Alt.=755.508301m. Speed=65.304001m/h.</desc>
<speed>18.140000</speed>
</trkpt>
<trkpt lat="42.867584" lon="18.933430">
<ele>744.7</ele>
<time>2012-05-02T23:14:13Z</time>
<desc>lat.=42.867584, lon.=18.933430, Alt.=758.070801m. Speed=65.232002m/h.</desc>
<speed>18.120001</speed>
</trkpt>
<trkpt lat="42.870617" lon="18.935827">
<ele>756.4</ele>
<time>2012-05-02T23:14:33Z</time>
<desc>lat.=42.870617, lon.=18.935827, Alt.=778.180176m. Speed=71.891998m/h.</desc>
<speed>19.970000</speed>
</trkpt>
<trkpt lat="42.872261" lon="18.936749">
<ele>773.4</ele>
<time>2012-05-02T23:14:43Z</time>
<desc>lat.=42.872261, lon.=18.936749, Alt.=789.633301m. Speed=67.391998m/h.</desc>
<speed>18.720000</speed>
</trkpt>
<trkpt lat="42.873631" lon="18.937862">
<ele>775.5</ele>
<time>2012-05-02T23:14:53Z</time>
<desc>lat.=42.873631, lon.=18.937862, Alt.=799.086426m. Speed=64.260002m/h.</desc>
<speed>17.850001</speed>
</trkpt>
<trkpt lat="42.876163" lon="18.939379">
<ele>794.5</ele>
<time>2012-05-02T23:15:13Z</time>
<desc>lat.=42.876163, lon.=18.939379, Alt.=816.539551m. Speed=56.448002m/h.</desc>
<speed>15.680001</speed>
</trkpt>
<trkpt lat="42.878078" lon="18.940264">
<ele>808.6</ele>
<time>2012-05-02T23:15:28Z</time>
<desc>lat.=42.878078, lon.=18.940264, Alt.=827.508301m. Speed=55.584000m/h.</desc>
<speed>15.440000</speed>
</trkpt>
<trkpt lat="42.880375" lon="18.942780">
<ele>816.5</ele>
<time>2012-05-02T23:15:48Z</time>
<desc>lat.=42.880375, lon.=18.942780, Alt.=835.898926m. Speed=58.751999m/h.</desc>
<speed>16.320000</speed>
</trkpt>
<trkpt lat="42.880791" lon="18.943617">
<ele>816.1</ele>
<time>2012-05-02T23:15:53Z</time>
<desc>lat.=42.880791, lon.=18.943617, Alt.=836.773926m. Speed=61.416000m/h.</desc>
<speed>17.060000</speed>
</trkpt>
<trkpt lat="42.881310" lon="18.945740">
<ele>822.1</ele>
<time>2012-05-02T23:16:03Z</time>
<desc>lat.=42.881310, lon.=18.945740, Alt.=840.242676m. Speed=66.167999m/h.</desc>
<speed>18.380000</speed>
</trkpt>
<trkpt lat="42.881718" lon="18.946674">
<ele>827.2</ele>
<time>2012-05-02T23:16:08Z</time>
<desc>lat.=42.881718, lon.=18.946674, Alt.=845.883301m. Speed=63.863998m/h.</desc>
<speed>17.740000</speed>
</trkpt>
<trkpt lat="42.885376" lon="18.951216">
<ele>855.4</ele>
<time>2012-05-02T23:16:38Z</time>
<desc>lat.=42.885376, lon.=18.951216, Alt.=871.023926m. Speed=67.211998m/h.</desc>
<speed>18.669999</speed>
</trkpt>
<trkpt lat="42.885872" lon="18.952175">
<ele>864.9</ele>
<time>2012-05-02T23:16:43Z</time>
<desc>lat.=42.885872, lon.=18.952175, Alt.=880.992676m. Speed=66.816002m/h.</desc>
<speed>18.560001</speed>
</trkpt>
<trkpt lat="42.886467" lon="18.954193">
<ele>873.7</ele>
<time>2012-05-02T23:16:53Z</time>
<desc>lat.=42.886467, lon.=18.954193, Alt.=896.086426m. Speed=56.844002m/h.</desc>
<speed>15.790000</speed>
</trkpt>
<trkpt lat="42.887821" lon="18.956766">
<ele>896.5</ele>
<time>2012-05-02T23:17:08Z</time>
<desc>lat.=42.887821, lon.=18.956766, Alt.=913.336426m. Speed=61.056000m/h.</desc>
<speed>16.960000</speed>
</trkpt>
<trkpt lat="42.888039" lon="18.957760">
<ele>904.2</ele>
<time>2012-05-02T23:17:13Z</time>
<desc>lat.=42.888039, lon.=18.957760, Alt.=916.570801m. Speed=62.964001m/h.</desc>
<speed>17.490000</speed>
</trkpt>
<trkpt lat="42.888142" lon="18.959810">
<ele>906.8</ele>
<time>2012-05-02T23:17:23Z</time>
<desc>lat.=42.888142, lon.=18.959810, Alt.=917.164551m. Speed=59.832001m/h.</desc>
<speed>16.620000</speed>
</trkpt>
<trkpt lat="42.888554" lon="18.960714">
<ele>900.8</ele>
<time>2012-05-02T23:17:28Z</time>
<desc>lat.=42.888554, lon.=18.960714, Alt.=915.977051m. Speed=67.356003m/h.</desc>
<speed>18.710001</speed>
</trkpt>
<trkpt lat="42.889275" lon="18.961334">
<ele>903.3</ele>
<time>2012-05-02T23:17:33Z</time>
<desc>lat.=42.889275, lon.=18.961334, Alt.=913.383301m. Speed=69.804001m/h.</desc>
<speed>19.390000</speed>
</trkpt>
<trkpt lat="42.892014" lon="18.962059">
<ele>897.7</ele>
<time>2012-05-02T23:17:48Z</time>
<desc>lat.=42.892014, lon.=18.962059, Alt.=913.648926m. Speed=76.103996m/h.</desc>
<speed>21.139999</speed>
</trkpt>
<trkpt lat="42.896404" lon="18.963882">
<ele>908.3</ele>
<time>2012-05-02T23:18:13Z</time>
<desc>lat.=42.896404, lon.=18.963882, Alt.=918.414551m. Speed=69.624001m/h.</desc>
<speed>19.340000</speed>
</trkpt>
<trkpt lat="42.897282" lon="18.963959">
<ele>909.8</ele>
<time>2012-05-02T23:18:18Z</time>
<desc>lat.=42.897282, lon.=18.963959, Alt.=922.398926m. Speed=69.047997m/h.</desc>
<speed>19.179999</speed>
</trkpt>
<trkpt lat="42.899040" lon="18.963377">
<ele>913.4</ele>
<time>2012-05-02T23:18:28Z</time>
<desc>lat.=42.899040, lon.=18.963377, Alt.=928.461426m. Speed=72.216003m/h.</desc>
<speed>20.060001</speed>
</trkpt>
<trkpt lat="42.899769" lon="18.962765">
<ele>916.6</ele>
<time>2012-05-02T23:18:33Z</time>
<desc>lat.=42.899769, lon.=18.962765, Alt.=931.570801m. Speed=67.211998m/h.</desc>
<speed>18.669999</speed>
</trkpt>
<trkpt lat="42.900753" lon="18.961346">
<ele>927.1</ele>
<time>2012-05-02T23:18:43Z</time>
<desc>lat.=42.900753, lon.=18.961346, Alt.=938.961426m. Speed=55.259998m/h.</desc>
<speed>15.350000</speed>
</trkpt>
<trkpt lat="42.901260" lon="18.960133">
<ele>930.7</ele>
<time>2012-05-02T23:18:53Z</time>
<desc>lat.=42.901260, lon.=18.960133, Alt.=945.398926m. Speed=19.656000m/h.</desc>
<speed>5.460000</speed>
</trkpt>
<trkpt lat="42.901958" lon="18.960333">
<ele>933.2</ele>
<time>2012-05-02T23:19:03Z</time>
<desc>lat.=42.901958, lon.=18.960333, Alt.=948.508301m. Speed=41.939999m/h.</desc>
<speed>11.650000</speed>
</trkpt>
<trkpt lat="42.902332" lon="18.960922">
<ele>936.6</ele>
<time>2012-05-02T23:19:08Z</time>
<desc>lat.=42.902332, lon.=18.960922, Alt.=949.586426m. Speed=50.004002m/h.</desc>
<speed>13.890000</speed>
</trkpt>
<trkpt lat="42.902550" lon="18.964310">
<ele>937.4</ele>
<time>2012-05-02T23:19:23Z</time>
<desc>lat.=42.902550, lon.=18.964310, Alt.=952.789551m. Speed=72.360001m/h.</desc>
<speed>20.100000</speed>
</trkpt>
<trkpt lat="42.902763" lon="18.965576">
<ele>943.4</ele>
<time>2012-05-02T23:19:28Z</time>
<desc>lat.=42.902763, lon.=18.965576, Alt.=956.898926m. Speed=76.680000m/h.</desc>
<speed>21.300000</speed>
</trkpt>
<trkpt lat="42.903889" lon="18.968925">
<ele>963.7</ele>
<time>2012-05-02T23:19:43Z</time>
<desc>lat.=42.903889, lon.=18.968925, Alt.=980.039551m. Speed=58.967999m/h.</desc>
<speed>16.380000</speed>
</trkpt>
<trkpt lat="42.904137" lon="18.969849">
<ele>965.8</ele>
<time>2012-05-02T23:19:48Z</time>
<desc>lat.=42.904137, lon.=18.969849, Alt.=986.992676m. Speed=57.636002m/h.</desc>
<speed>16.010000</speed>
</trkpt>
<trkpt lat="42.904186" lon="18.970844">
<ele>973.1</ele>
<time>2012-05-02T23:19:53Z</time>
<desc>lat.=42.904186, lon.=18.970844, Alt.=992.008301m. Speed=60.624001m/h.</desc>
<speed>16.840000</speed>
</trkpt>
<trkpt lat="42.903503" lon="18.973957">
<ele>991.1</ele>
<time>2012-05-02T23:20:08Z</time>
<desc>lat.=42.903503, lon.=18.973957, Alt.=1002.836426m. Speed=62.459999m/h.</desc>
<speed>17.350000</speed>
</trkpt>
<trkpt lat="42.903519" lon="18.976049">
<ele>1004.9</ele>
<time>2012-05-02T23:20:18Z</time>
<desc>lat.=42.903519, lon.=18.976049, Alt.=1013.336426m. Speed=61.667999m/h.</desc>
<speed>17.130000</speed>
</trkpt>
<trkpt lat="42.902924" lon="18.979008">
<ele>1017.1</ele>
<time>2012-05-02T23:20:33Z</time>
<desc>lat.=42.902924, lon.=18.979008, Alt.=1023.508301m. Speed=57.672001m/h.</desc>
<speed>16.020000</speed>
</trkpt>
<trkpt lat="42.902847" lon="18.979971">
<ele>1022.3</ele>
<time>2012-05-02T23:20:38Z</time>
<desc>lat.=42.902847, lon.=18.979971, Alt.=1027.860352m. Speed=56.160000m/h.</desc>
<speed>15.600000</speed>
</trkpt>
<trkpt lat="42.903145" lon="18.981878">
<ele>1029.1</ele>
<time>2012-05-02T23:20:48Z</time>
<desc>lat.=42.903145, lon.=18.981878, Alt.=1033.954102m. Speed=60.119999m/h.</desc>
<speed>16.700000</speed>
</trkpt>
<trkpt lat="42.903027" lon="18.982893">
<ele>1035.5</ele>
<time>2012-05-02T23:20:53Z</time>
<desc>lat.=42.903027, lon.=18.982893, Alt.=1038.297852m. Speed=60.768002m/h.</desc>
<speed>16.880000</speed>
</trkpt>
<trkpt lat="42.902542" lon="18.984739">
<ele>1043.2</ele>
<time>2012-05-02T23:21:03Z</time>
<desc>lat.=42.902542, lon.=18.984739, Alt.=1048.547852m. Speed=57.060001m/h.</desc>
<speed>15.850000</speed>
</trkpt>
<trkpt lat="42.902672" lon="18.985680">
<ele>1049.1</ele>
<time>2012-05-02T23:21:08Z</time>
<desc>lat.=42.902672, lon.=18.985680, Alt.=1051.391602m. Speed=58.751999m/h.</desc>
<speed>16.320000</speed>
</trkpt>
<trkpt lat="42.902584" lon="18.986643">
<ele>1055.3</ele>
<time>2012-05-02T23:21:13Z</time>
<desc>lat.=42.902584, lon.=18.986643, Alt.=1056.797852m. Speed=56.015999m/h.</desc>
<speed>15.560000</speed>
</trkpt>
<trkpt lat="42.901150" lon="18.988556">
<ele>1072.5</ele>
<time>2012-05-02T23:21:28Z</time>
<desc>lat.=42.901150, lon.=18.988556, Alt.=1073.985352m. Speed=51.948002m/h.</desc>
<speed>14.430001</speed>
</trkpt>
<trkpt lat="42.901161" lon="18.989454">
<ele>1072.1</ele>
<time>2012-05-02T23:21:33Z</time>
<desc>lat.=42.901161, lon.=18.989454, Alt.=1075.360352m. Speed=57.599998m/h.</desc>
<speed>16.000000</speed>
</trkpt>
<trkpt lat="42.901493" lon="18.990351">
<ele>1075.2</ele>
<time>2012-05-02T23:21:38Z</time>
<desc>lat.=42.901493, lon.=18.990351, Alt.=1086.266602m. Speed=57.060001m/h.</desc>
<speed>15.850000</speed>
</trkpt>
<trkpt lat="42.901615" lon="18.991293">
<ele>1082.8</ele>
<time>2012-05-02T23:21:43Z</time>
<desc>lat.=42.901615, lon.=18.991293, Alt.=1091.954102m. Speed=57.528000m/h.</desc>
<speed>15.980000</speed>
</trkpt>
<trkpt lat="42.900925" lon="18.993036">
<ele>1094.6</ele>
<time>2012-05-02T23:21:53Z</time>
<desc>lat.=42.900925, lon.=18.993036, Alt.=1103.297852m. Speed=61.416000m/h.</desc>
<speed>17.060000</speed>
</trkpt>
<trkpt lat="42.900574" lon="18.995045">
<ele>1105.6</ele>
<time>2012-05-02T23:22:03Z</time>
<desc>lat.=42.900574, lon.=18.995045, Alt.=1112.547852m. Speed=58.355999m/h.</desc>
<speed>16.210000</speed>
</trkpt>
<trkpt lat="42.899857" lon="18.996843">
<ele>1110.6</ele>
<time>2012-05-02T23:22:13Z</time>
<desc>lat.=42.899857, lon.=18.996843, Alt.=1121.391602m. Speed=63.900002m/h.</desc>
<speed>17.750000</speed>
</trkpt>
<trkpt lat="42.899105" lon="18.999828">
<ele>1128.8</ele>
<time>2012-05-02T23:22:28Z</time>
<desc>lat.=42.899105, lon.=18.999828, Alt.=1138.672852m. Speed=62.459999m/h.</desc>
<speed>17.350000</speed>
</trkpt>
<trkpt lat="42.899101" lon="19.000847">
<ele>1127.3</ele>
<time>2012-05-02T23:22:33Z</time>
<desc>lat.=42.899101, lon.=19.000847, Alt.=1140.516602m. Speed=61.091999m/h.</desc>
<speed>16.970000</speed>
</trkpt>
<trkpt lat="42.900398" lon="19.004738">
<ele>1156.0</ele>
<time>2012-05-02T23:22:53Z</time>
<desc>lat.=42.900398, lon.=19.004738, Alt.=1168.516602m. Speed=64.332001m/h.</desc>
<speed>17.870000</speed>
</trkpt>
<trkpt lat="42.900848" lon="19.005638">
<ele>1161.1</ele>
<time>2012-05-02T23:22:58Z</time>
<desc>lat.=42.900848, lon.=19.005638, Alt.=1176.610352m. Speed=64.260002m/h.</desc>
<speed>17.850001</speed>
</trkpt>
<trkpt lat="42.901440" lon="19.006378">
<ele>1169.8</ele>
<time>2012-05-02T23:23:03Z</time>
<desc>lat.=42.901440, lon.=19.006378, Alt.=1182.610352m. Speed=63.576000m/h.</desc>
<speed>17.660000</speed>
</trkpt>
<trkpt lat="42.901825" lon="19.007278">
<ele>1170.9</ele>
<time>2012-05-02T23:23:08Z</time>
<desc>lat.=42.901825, lon.=19.007278, Alt.=1188.766602m. Speed=60.588001m/h.</desc>
<speed>16.830000</speed>
</trkpt>
<trkpt lat="42.901756" lon="19.009405">
<ele>1184.6</ele>
<time>2012-05-02T23:23:18Z</time>
<desc>lat.=42.901756, lon.=19.009405, Alt.=1197.141602m. Speed=60.875999m/h.</desc>
<speed>16.910000</speed>
</trkpt>
<trkpt lat="42.901974" lon="19.010410">
<ele>1185.8</ele>
<time>2012-05-02T23:23:23Z</time>
<desc>lat.=42.901974, lon.=19.010410, Alt.=1199.485352m. Speed=63.035999m/h.</desc>
<speed>17.510000</speed>
</trkpt>
<trkpt lat="42.904263" lon="19.013437">
<ele>1203.4</ele>
<time>2012-05-02T23:23:43Z</time>
<desc>lat.=42.904263, lon.=19.013437, Alt.=1214.235352m. Speed=61.812000m/h.</desc>
<speed>17.170000</speed>
</trkpt>
<trkpt lat="42.904587" lon="19.014339">
<ele>1202.1</ele>
<time>2012-05-02T23:23:48Z</time>
<desc>lat.=42.904587, lon.=19.014339, Alt.=1216.329102m. Speed=59.363998m/h.</desc>
<speed>16.490000</speed>
</trkpt>
<trkpt lat="42.904629" lon="19.015373">
<ele>1209.6</ele>
<time>2012-05-02T23:23:53Z</time>
<desc>lat.=42.904629, lon.=19.015373, Alt.=1219.547852m. Speed=60.480000m/h.</desc>
<speed>16.800000</speed>
</trkpt>
<trkpt lat="42.904392" lon="19.016329">
<ele>1218.8</ele>
<time>2012-05-02T23:23:58Z</time>
<desc>lat.=42.904392, lon.=19.016329, Alt.=1223.485352m. Speed=59.652000m/h.</desc>
<speed>16.570000</speed>
</trkpt>
<trkpt lat="42.903397" lon="19.017849">
<ele>1228.8</ele>
<time>2012-05-02T23:24:08Z</time>
<desc>lat.=42.903397, lon.=19.017849, Alt.=1235.422852m. Speed=59.292000m/h.</desc>
<speed>16.470000</speed>
</trkpt>
<trkpt lat="42.902626" lon="19.019644">
<ele>1241.5</ele>
<time>2012-05-02T23:24:18Z</time>
<desc>lat.=42.902626, lon.=19.019644, Alt.=1246.766602m. Speed=61.523998m/h.</desc>
<speed>17.090000</speed>
</trkpt>
<trkpt lat="42.902134" lon="19.020426">
<ele>1249.1</ele>
<time>2012-05-02T23:24:23Z</time>
<desc>lat.=42.902134, lon.=19.020426, Alt.=1252.422852m. Speed=60.551998m/h.</desc>
<speed>16.819999</speed>
</trkpt>
<trkpt lat="42.900284" lon="19.022345">
<ele>1269.5</ele>
<time>2012-05-02T23:24:38Z</time>
<desc>lat.=42.900284, lon.=19.022345, Alt.=1274.422852m. Speed=60.515999m/h.</desc>
<speed>16.810000</speed>
</trkpt>
<trkpt lat="42.899860" lon="19.023233">
<ele>1273.3</ele>
<time>2012-05-02T23:24:43Z</time>
<desc>lat.=42.899860, lon.=19.023233, Alt.=1281.672852m. Speed=61.919998m/h.</desc>
<speed>17.199999</speed>
</trkpt>
<trkpt lat="42.899536" lon="19.025259">
<ele>1288.6</ele>
<time>2012-05-02T23:24:53Z</time>
<desc>lat.=42.899536, lon.=19.025259, Alt.=1294.047852m. Speed=61.848000m/h.</desc>
<speed>17.180000</speed>
</trkpt>
<trkpt lat="42.900528" lon="19.030910">
<ele>1303.6</ele>
<time>2012-05-02T23:25:18Z</time>
<desc>lat.=42.900528, lon.=19.030910, Alt.=1304.391602m. Speed=64.260002m/h.</desc>
<speed>17.850001</speed>
</trkpt>
<trkpt lat="42.900368" lon="19.031944">
<ele>1303.5</ele>
<time>2012-05-02T23:25:23Z</time>
<desc>lat.=42.900368, lon.=19.031944, Alt.=1306.485352m. Speed=63.540001m/h.</desc>
<speed>17.650000</speed>
</trkpt>
<trkpt lat="42.899940" lon="19.032917">
<ele>1307.1</ele>
<time>2012-05-02T23:25:28Z</time>
<desc>lat.=42.899940, lon.=19.032917, Alt.=1308.391602m. Speed=65.267998m/h.</desc>
<speed>18.129999</speed>
</trkpt>
<trkpt lat="42.899467" lon="19.035038">
<ele>1314.8</ele>
<time>2012-05-02T23:25:38Z</time>
<desc>lat.=42.899467, lon.=19.035038, Alt.=1313.579102m. Speed=58.175999m/h.</desc>
<speed>16.160000</speed>
</trkpt>
<trkpt lat="42.898979" lon="19.035742">
<ele>1333.0</ele>
<time>2012-05-02T23:25:43Z</time>
<desc>lat.=42.898979, lon.=19.035742, Alt.=1317.360352m. Speed=60.768002m/h.</desc>
<speed>16.880000</speed>
</trkpt>
<trkpt lat="42.897499" lon="19.036661">
<ele>1340.2</ele>
<time>2012-05-02T23:25:53Z</time>
<desc>lat.=42.897499, lon.=19.036661, Alt.=1328.641602m. Speed=68.975998m/h.</desc>
<speed>19.159999</speed>
</trkpt>
<trkpt lat="42.896820" lon="19.037354">
<ele>1339.7</ele>
<time>2012-05-02T23:25:58Z</time>
<desc>lat.=42.896820, lon.=19.037354, Alt.=1332.797852m. Speed=68.580002m/h.</desc>
<speed>19.050001</speed>
</trkpt>
<trkpt lat="42.896381" lon="19.038332">
<ele>1337.0</ele>
<time>2012-05-02T23:26:03Z</time>
<desc>lat.=42.896381, lon.=19.038332, Alt.=1337.047852m. Speed=67.571999m/h.</desc>
<speed>18.770000</speed>
</trkpt>
<trkpt lat="42.896236" lon="19.039469">
<ele>1337.7</ele>
<time>2012-05-02T23:26:08Z</time>
<desc>lat.=42.896236, lon.=19.039469, Alt.=1342.579102m. Speed=68.832001m/h.</desc>
<speed>19.120000</speed>
</trkpt>
<trkpt lat="42.896385" lon="19.040508">
<ele>1343.4</ele>
<time>2012-05-02T23:26:13Z</time>
<desc>lat.=42.896385, lon.=19.040508, Alt.=1346.829102m. Speed=62.099998m/h.</desc>
<speed>17.250000</speed>
</trkpt>
<trkpt lat="42.896793" lon="19.041422">
<ele>1355.0</ele>
<time>2012-05-02T23:26:18Z</time>
<desc>lat.=42.896793, lon.=19.041422, Alt.=1352.922852m. Speed=64.907997m/h.</desc>
<speed>18.029999</speed>
</trkpt>
<trkpt lat="42.898762" lon="19.043444">
<ele>1364.7</ele>
<time>2012-05-02T23:26:33Z</time>
<desc>lat.=42.898762, lon.=19.043444, Alt.=1373.704102m. Speed=63.900002m/h.</desc>
<speed>17.750000</speed>
</trkpt>
<trkpt lat="42.899246" lon="19.044306">
<ele>1368.3</ele>
<time>2012-05-02T23:26:38Z</time>
<desc>lat.=42.899246, lon.=19.044306, Alt.=1376.454102m. Speed=64.475998m/h.</desc>
<speed>17.909999</speed>
</trkpt>
<trkpt lat="42.899887" lon="19.046431">
<ele>1366.1</ele>
<time>2012-05-02T23:26:48Z</time>
<desc>lat.=42.899887, lon.=19.046431, Alt.=1376.172852m. Speed=70.127998m/h.</desc>
<speed>19.480000</speed>
</trkpt>
<trkpt lat="42.900829" lon="19.048414">
<ele>1373.4</ele>
<time>2012-05-02T23:26:58Z</time>
<desc>lat.=42.900829, lon.=19.048414, Alt.=1380.297852m. Speed=68.075996m/h.</desc>
<speed>18.909999</speed>
</trkpt>
<trkpt lat="42.901070" lon="19.049528">
<ele>1382.6</ele>
<time>2012-05-02T23:27:03Z</time>
<desc>lat.=42.901070, lon.=19.049528, Alt.=1381.266602m. Speed=69.120003m/h.</desc>
<speed>19.200001</speed>
</trkpt>
<trkpt lat="42.901199" lon="19.051815">
<ele>1384.9</ele>
<time>2012-05-02T23:27:13Z</time>
<desc>lat.=42.901199, lon.=19.051815, Alt.=1382.047852m. Speed=66.384003m/h.</desc>
<speed>18.440001</speed>
</trkpt>
<trkpt lat="42.901806" lon="19.054008">
<ele>1387.9</ele>
<time>2012-05-02T23:27:23Z</time>
<desc>lat.=42.901806, lon.=19.054008, Alt.=1388.079102m. Speed=64.547997m/h.</desc>
<speed>17.929999</speed>
</trkpt>
<trkpt lat="42.901913" lon="19.055117">
<ele>1396.0</ele>
<time>2012-05-02T23:27:28Z</time>
<desc>lat.=42.901913, lon.=19.055117, Alt.=1391.266602m. Speed=64.152000m/h.</desc>
<speed>17.820000</speed>
</trkpt>
<trkpt lat="42.901691" lon="19.060877">
<ele>1405.3</ele>
<time>2012-05-02T23:27:53Z</time>
<desc>lat.=42.901691, lon.=19.060877, Alt.=1410.079102m. Speed=67.680000m/h.</desc>
<speed>18.800000</speed>
</trkpt>
<trkpt lat="42.901493" lon="19.061947">
<ele>1408.6</ele>
<time>2012-05-02T23:27:58Z</time>
<desc>lat.=42.901493, lon.=19.061947, Alt.=1413.016602m. Speed=61.560001m/h.</desc>
<speed>17.100000</speed>
</trkpt>
<trkpt lat="42.901039" lon="19.062716">
<ele>1418.3</ele>
<time>2012-05-02T23:28:03Z</time>
<desc>lat.=42.901039, lon.=19.062716, Alt.=1415.391602m. Speed=55.619999m/h.</desc>
<speed>15.450000</speed>
</trkpt>
<trkpt lat="42.900452" lon="19.063286">
<ele>1425.0</ele>
<time>2012-05-02T23:28:08Z</time>
<desc>lat.=42.900452, lon.=19.063286, Alt.=1417.579102m. Speed=59.580002m/h.</desc>
<speed>16.550001</speed>
</trkpt>
<trkpt lat="42.899776" lon="19.063797">
<ele>1424.7</ele>
<time>2012-05-02T23:28:13Z</time>
<desc>lat.=42.899776, lon.=19.063797, Alt.=1419.579102m. Speed=62.243999m/h.</desc>
<speed>17.290000</speed>
</trkpt>
<trkpt lat="42.899036" lon="19.064001">
<ele>1418.7</ele>
<time>2012-05-02T23:28:18Z</time>
<desc>lat.=42.899036, lon.=19.064001, Alt.=1420.266602m. Speed=63.647999m/h.</desc>
<speed>17.680000</speed>
</trkpt>
<trkpt lat="42.898232" lon="19.063805">
<ele>1430.5</ele>
<time>2012-05-02T23:28:23Z</time>
<desc>lat.=42.898232, lon.=19.063805, Alt.=1418.704102m. Speed=65.736000m/h.</desc>
<speed>18.260000</speed>
</trkpt>
<trkpt lat="42.897457" lon="19.063951">
<ele>1431.8</ele>
<time>2012-05-02T23:28:28Z</time>
<desc>lat.=42.897457, lon.=19.063951, Alt.=1420.985352m. Speed=63.827999m/h.</desc>
<speed>17.730000</speed>
</trkpt>
<trkpt lat="42.895580" lon="19.065966">
<ele>1429.4</ele>
<time>2012-05-02T23:28:43Z</time>
<desc>lat.=42.895580, lon.=19.065966, Alt.=1430.047852m. Speed=63.756001m/h.</desc>
<speed>17.710000</speed>
</trkpt>
<trkpt lat="42.895084" lon="19.066843">
<ele>1426.6</ele>
<time>2012-05-02T23:28:48Z</time>
<desc>lat.=42.895084, lon.=19.066843, Alt.=1432.704102m. Speed=65.195999m/h.</desc>
<speed>18.110000</speed>
</trkpt>
<trkpt lat="42.894878" lon="19.067905">
<ele>1437.0</ele>
<time>2012-05-02T23:28:53Z</time>
<desc>lat.=42.894878, lon.=19.067905, Alt.=1434.547852m. Speed=62.568001m/h.</desc>
<speed>17.380000</speed>
</trkpt>
<trkpt lat="42.895031" lon="19.071295">
<ele>1427.1</ele>
<time>2012-05-02T23:29:08Z</time>
<desc>lat.=42.895031, lon.=19.071295, Alt.=1429.641602m. Speed=68.940002m/h.</desc>
<speed>19.150001</speed>
</trkpt>
<trkpt lat="42.894829" lon="19.072420">
<ele>1431.8</ele>
<time>2012-05-02T23:29:13Z</time>
<desc>lat.=42.894829, lon.=19.072420, Alt.=1436.047852m. Speed=67.031998m/h.</desc>
<speed>18.619999</speed>
</trkpt>
<trkpt lat="42.893764" lon="19.075377">
<ele>1451.5</ele>
<time>2012-05-02T23:29:28Z</time>
<desc>lat.=42.893764, lon.=19.075377, Alt.=1456.954102m. Speed=63.180000m/h.</desc>
<speed>17.550000</speed>
</trkpt>
<trkpt lat="42.893707" lon="19.076380">
<ele>1456.9</ele>
<time>2012-05-02T23:29:33Z</time>
<desc>lat.=42.893707, lon.=19.076380, Alt.=1458.360352m. Speed=56.088001m/h.</desc>
<speed>15.580000</speed>
</trkpt>
<trkpt lat="42.894157" lon="19.078239">
<ele>1462.9</ele>
<time>2012-05-02T23:29:43Z</time>
<desc>lat.=42.894157, lon.=19.078239, Alt.=1455.110352m. Speed=60.228001m/h.</desc>
<speed>16.730000</speed>
</trkpt>
<trkpt lat="42.894642" lon="19.079029">
<ele>1457.7</ele>
<time>2012-05-02T23:29:48Z</time>
<desc>lat.=42.894642, lon.=19.079029, Alt.=1461.579102m. Speed=60.624001m/h.</desc>
<speed>16.840000</speed>
</trkpt>
<trkpt lat="42.895233" lon="19.079647">
<ele>1461.1</ele>
<time>2012-05-02T23:29:53Z</time>
<desc>lat.=42.895233, lon.=19.079647, Alt.=1464.922852m. Speed=61.020000m/h.</desc>
<speed>16.950000</speed>
</trkpt>
<trkpt lat="42.897442" lon="19.080818">
<ele>1461.6</ele>
<time>2012-05-02T23:30:09Z</time>
<desc>lat.=42.897442, lon.=19.080818, Alt.=1497.016602m. Speed=53.388000m/h.</desc>
<speed>14.830000</speed>
</trkpt>
<trkpt lat="42.898067" lon="19.081364">
<ele>1449.1</ele>
<time>2012-05-02T23:30:14Z</time>
<desc>lat.=42.898067, lon.=19.081364, Alt.=1476.954102m. Speed=58.716000m/h.</desc>
<speed>16.310000</speed>
</trkpt>
<trkpt lat="42.898994" lon="19.082853">
<ele>1438.1</ele>
<time>2012-05-02T23:30:24Z</time>
<desc>lat.=42.898994, lon.=19.082853, Alt.=1458.829102m. Speed=57.636002m/h.</desc>
<speed>16.010000</speed>
</trkpt>
<trkpt lat="42.899410" lon="19.084702">
<ele>1431.2</ele>
<time>2012-05-02T23:30:34Z</time>
<desc>lat.=42.899410, lon.=19.084702, Alt.=1440.766602m. Speed=55.259998m/h.</desc>
<speed>15.350000</speed>
</trkpt>
<trkpt lat="42.899281" lon="19.087517">
<ele>1410.5</ele>
<time>2012-05-02T23:30:49Z</time>
<desc>lat.=42.899281, lon.=19.087517, Alt.=1420.735352m. Speed=53.820000m/h.</desc>
<speed>14.950000</speed>
</trkpt>
<trkpt lat="42.899509" lon="19.089354">
<ele>1403.4</ele>
<time>2012-05-02T23:30:59Z</time>
<desc>lat.=42.899509, lon.=19.089354, Alt.=1405.391602m. Speed=53.424000m/h.</desc>
<speed>14.840000</speed>
</trkpt>
<trkpt lat="42.899422" lon="19.091183">
<ele>1390.8</ele>
<time>2012-05-02T23:31:09Z</time>
<desc>lat.=42.899422, lon.=19.091183, Alt.=1394.891602m. Speed=51.624001m/h.</desc>
<speed>14.340000</speed>
</trkpt>
<trkpt lat="42.899548" lon="19.091995">
<ele>1391.1</ele>
<time>2012-05-02T23:31:14Z</time>
<desc>lat.=42.899548, lon.=19.091995, Alt.=1389.547852m. Speed=48.995998m/h.</desc>
<speed>13.610000</speed>
</trkpt>
<trkpt lat="42.900742" lon="19.093487">
<ele>1387.1</ele>
<time>2012-05-02T23:31:29Z</time>
<desc>lat.=42.900742, lon.=19.093487, Alt.=1389.172852m. Speed=31.284000m/h.</desc>
<speed>8.690000</speed>
</trkpt>
<trkpt lat="42.901031" lon="19.093311">
<ele>1382.4</ele>
<time>2012-05-02T23:31:34Z</time>
<desc>lat.=42.901031, lon.=19.093311, Alt.=1390.172852m. Speed=10.008000m/h.</desc>
<speed>2.780000</speed>
</trkpt>
<trkpt lat="42.899933" lon="19.091764">
<ele>1374.7</ele>
<time>2012-05-02T23:31:59Z</time>
<desc>lat.=42.899933, lon.=19.091764, Alt.=1374.422852m. Speed=24.264000m/h.</desc>
<speed>6.740000</speed>
</trkpt>
<trkpt lat="42.900501" lon="19.088688">
<ele>1367.5</ele>
<time>2012-05-02T23:32:29Z</time>
<desc>lat.=42.900501, lon.=19.088688, Alt.=1368.797852m. Speed=12.564000m/h.</desc>
<speed>3.490000</speed>
</trkpt>
<trkpt lat="42.900570" lon="19.090219">
<ele>1356.0</ele>
<time>2012-05-02T23:32:49Z</time>
<desc>lat.=42.900570, lon.=19.090219, Alt.=1357.547852m. Speed=28.620001m/h.</desc>
<speed>7.950000</speed>
</trkpt>
<trkpt lat="42.900902" lon="19.091202">
<ele>1354.7</ele>
<time>2012-05-02T23:32:59Z</time>
<desc>lat.=42.900902, lon.=19.091202, Alt.=1351.891602m. Speed=26.316000m/h.</desc>
<speed>7.310000</speed>
</trkpt>
<trkpt lat="42.901897" lon="19.091450">
<ele>1345.4</ele>
<time>2012-05-02T23:33:14Z</time>
<desc>lat.=42.901897, lon.=19.091450, Alt.=1342.860352m. Speed=27.936001m/h.</desc>
<speed>7.760000</speed>
</trkpt>
<trkpt lat="42.902523" lon="19.091135">
<ele>1336.6</ele>
<time>2012-05-02T23:33:24Z</time>
<desc>lat.=42.902523, lon.=19.091135, Alt.=1338.829102m. Speed=26.424000m/h.</desc>
<speed>7.340000</speed>
</trkpt>
<trkpt lat="42.903263" lon="19.091127">
<ele>1332.8</ele>
<time>2012-05-02T23:33:34Z</time>
<desc>lat.=42.903263, lon.=19.091127, Alt.=1335.516602m. Speed=32.076000m/h.</desc>
<speed>8.910000</speed>
</trkpt>
<trkpt lat="42.903431" lon="19.090252">
<ele>1318.8</ele>
<time>2012-05-02T23:33:44Z</time>
<desc>lat.=42.903431, lon.=19.090252, Alt.=1333.579102m. Speed=26.243999m/h.</desc>
<speed>7.290000</speed>
</trkpt>
<trkpt lat="42.904018" lon="19.089737">
<ele>1323.7</ele>
<time>2012-05-02T23:33:54Z</time>
<desc>lat.=42.904018, lon.=19.089737, Alt.=1333.735352m. Speed=30.348000m/h.</desc>
<speed>8.430000</speed>
</trkpt>
<trkpt lat="42.904831" lon="19.090189">
<ele>1318.5</ele>
<time>2012-05-02T23:34:04Z</time>
<desc>lat.=42.904831, lon.=19.090189, Alt.=1329.516602m. Speed=33.911999m/h.</desc>
<speed>9.420000</speed>
</trkpt>
<trkpt lat="42.905567" lon="19.091734">
<ele>1313.4</ele>
<time>2012-05-02T23:34:19Z</time>
<desc>lat.=42.905567, lon.=19.091734, Alt.=1319.985352m. Speed=28.007999m/h.</desc>
<speed>7.780000</speed>
</trkpt>
<trkpt lat="42.906239" lon="19.091902">
<ele>1304.7</ele>
<time>2012-05-02T23:34:29Z</time>
<desc>lat.=42.906239, lon.=19.091902, Alt.=1318.829102m. Speed=31.968000m/h.</desc>
<speed>8.880000</speed>
</trkpt>
<trkpt lat="42.906445" lon="19.092197">
<ele>1306.5</ele>
<time>2012-05-02T23:34:34Z</time>
<desc>lat.=42.906445, lon.=19.092197, Alt.=1316.735352m. Speed=15.912000m/h.</desc>
<speed>4.420000</speed>
</trkpt>
<trkpt lat="42.906597" lon="19.092142">
<ele>1300.5</ele>
<time>2012-05-02T23:34:39Z</time>
<desc>lat.=42.906597, lon.=19.092142, Alt.=1314.204102m. Speed=18.792000m/h.</desc>
<speed>5.220000</speed>
</trkpt>
<trkpt lat="42.906506" lon="19.091833">
<ele>1297.5</ele>
<time>2012-05-02T23:34:44Z</time>
<desc>lat.=42.906506, lon.=19.091833, Alt.=1313.797852m. Speed=21.024000m/h.</desc>
<speed>5.840000</speed>
</trkpt>
<trkpt lat="42.905972" lon="19.091375">
<ele>1297.9</ele>
<time>2012-05-02T23:34:54Z</time>
<desc>lat.=42.905972, lon.=19.091375, Alt.=1312.610352m. Speed=28.007999m/h.</desc>
<speed>7.780000</speed>
</trkpt>
<trkpt lat="42.905754" lon="19.090324">
<ele>1296.0</ele>
<time>2012-05-02T23:35:04Z</time>
<desc>lat.=42.905754, lon.=19.090324, Alt.=1313.141602m. Speed=35.964001m/h.</desc>
<speed>9.990000</speed>
</trkpt>
<trkpt lat="42.905830" lon="19.089708">
<ele>1291.3</ele>
<time>2012-05-02T23:35:09Z</time>
<desc>lat.=42.905830, lon.=19.089708, Alt.=1314.516602m. Speed=37.764000m/h.</desc>
<speed>10.490000</speed>
</trkpt>
<trkpt lat="42.906219" lon="19.088743">
<ele>1278.1</ele>
<time>2012-05-02T23:35:19Z</time>
<desc>lat.=42.906219, lon.=19.088743, Alt.=1307.516602m. Speed=21.816000m/h.</desc>
<speed>6.060000</speed>
</trkpt>
<trkpt lat="42.905754" lon="19.088287">
<ele>1272.0</ele>
<time>2012-05-02T23:35:29Z</time>
<desc>lat.=42.905754, lon.=19.088287, Alt.=1302.610352m. Speed=25.524000m/h.</desc>
<speed>7.090000</speed>
</trkpt>
<trkpt lat="42.905048" lon="19.088436">
<ele>1281.0</ele>
<time>2012-05-02T23:35:44Z</time>
<desc>lat.=42.905048, lon.=19.088436, Alt.=1296.266602m. Speed=17.100000m/h.</desc>
<speed>4.750000</speed>
</trkpt>
<trkpt lat="42.905647" lon="19.087866">
<ele>1266.6</ele>
<time>2012-05-02T23:35:59Z</time>
<desc>lat.=42.905647, lon.=19.087866, Alt.=1292.954102m. Speed=24.552000m/h.</desc>
<speed>6.820000</speed>
</trkpt>
<trkpt lat="42.906235" lon="19.088125">
<ele>1267.8</ele>
<time>2012-05-02T23:36:09Z</time>
<desc>lat.=42.906235, lon.=19.088125, Alt.=1290.266602m. Speed=24.191999m/h.</desc>
<speed>6.720000</speed>
</trkpt>
<trkpt lat="42.906975" lon="19.088104">
<ele>1261.1</ele>
<time>2012-05-02T23:36:19Z</time>
<desc>lat.=42.906975, lon.=19.088104, Alt.=1289.422852m. Speed=31.968000m/h.</desc>
<speed>8.880000</speed>
</trkpt>
<trkpt lat="42.907112" lon="19.088509">
<ele>1261.0</ele>
<time>2012-05-02T23:36:24Z</time>
<desc>lat.=42.907112, lon.=19.088509, Alt.=1289.672852m. Speed=26.172001m/h.</desc>
<speed>7.270000</speed>
</trkpt>
<trkpt lat="42.907104" lon="19.089304">
<ele>1250.0</ele>
<time>2012-05-02T23:36:34Z</time>
<desc>lat.=42.907104, lon.=19.089304, Alt.=1287.704102m. Speed=27.900000m/h.</desc>
<speed>7.750000</speed>
</trkpt>
<trkpt lat="42.908524" lon="19.089458">
<ele>1238.5</ele>
<time>2012-05-02T23:36:49Z</time>
<desc>lat.=42.908524, lon.=19.089458, Alt.=1289.329102m. Speed=37.223999m/h.</desc>
<speed>10.340000</speed>
</trkpt>
<trkpt lat="42.909267" lon="19.090204">
<ele>1232.2</ele>
<time>2012-05-02T23:36:59Z</time>
<desc>lat.=42.909267, lon.=19.090204, Alt.=1270.516602m. Speed=39.456001m/h.</desc>
<speed>10.960000</speed>
</trkpt>
<trkpt lat="42.909760" lon="19.090256">
<ele>1229.5</ele>
<time>2012-05-02T23:37:04Z</time>
<desc>lat.=42.909760, lon.=19.090256, Alt.=1267.922852m. Speed=38.015999m/h.</desc>
<speed>10.560000</speed>
</trkpt>
<trkpt lat="42.910553" lon="19.090002">
<ele>1223.3</ele>
<time>2012-05-02T23:37:14Z</time>
<desc>lat.=42.910553, lon.=19.090002, Alt.=1259.141602m. Speed=23.256001m/h.</desc>
<speed>6.460000</speed>
</trkpt>
<trkpt lat="42.910828" lon="19.090807">
<ele>1220.2</ele>
<time>2012-05-02T23:37:24Z</time>
<desc>lat.=42.910828, lon.=19.090807, Alt.=1247.516602m. Speed=29.591999m/h.</desc>
<speed>8.220000</speed>
</trkpt>
<trkpt lat="42.911274" lon="19.090906">
<ele>1216.0</ele>
<time>2012-05-02T23:37:29Z</time>
<desc>lat.=42.911274, lon.=19.090906, Alt.=1236.204102m. Speed=40.464001m/h.</desc>
<speed>11.240000</speed>
</trkpt>
<trkpt lat="42.913265" lon="19.090214">
<ele>1202.7</ele>
<time>2012-05-02T23:37:49Z</time>
<desc>lat.=42.913265, lon.=19.090214, Alt.=1215.860352m. Speed=41.040001m/h.</desc>
<speed>11.400000</speed>
</trkpt>
<trkpt lat="42.916203" lon="19.090841">
<ele>1188.9</ele>
<time>2012-05-02T23:38:14Z</time>
<desc>lat.=42.916203, lon.=19.090841, Alt.=1201.766602m. Speed=37.619999m/h.</desc>
<speed>10.450000</speed>
</trkpt>
<trkpt lat="42.916576" lon="19.089882">
<ele>1186.1</ele>
<time>2012-05-02T23:38:24Z</time>
<desc>lat.=42.916576, lon.=19.089882, Alt.=1196.172852m. Speed=32.292000m/h.</desc>
<speed>8.970000</speed>
</trkpt>
<trkpt lat="42.917328" lon="19.089302">
<ele>1183.1</ele>
<time>2012-05-02T23:38:34Z</time>
<desc>lat.=42.917328, lon.=19.089302, Alt.=1190.391602m. Speed=40.284000m/h.</desc>
<speed>11.190000</speed>
</trkpt>
<trkpt lat="42.917656" lon="19.088793">
<ele>1180.2</ele>
<time>2012-05-02T23:38:39Z</time>
<desc>lat.=42.917656, lon.=19.088793, Alt.=1188.235352m. Speed=39.852001m/h.</desc>
<speed>11.070000</speed>
</trkpt>
<trkpt lat="42.917812" lon="19.088167">
<ele>1176.9</ele>
<time>2012-05-02T23:38:44Z</time>
<desc>lat.=42.917812, lon.=19.088167, Alt.=1186.266602m. Speed=38.880001m/h.</desc>
<speed>10.800000</speed>
</trkpt>
<trkpt lat="42.918407" lon="19.087238">
<ele>1170.8</ele>
<time>2012-05-02T23:38:54Z</time>
<desc>lat.=42.918407, lon.=19.087238, Alt.=1179.485352m. Speed=30.096001m/h.</desc>
<speed>8.360000</speed>
</trkpt>
<trkpt lat="42.918438" lon="19.086721">
<ele>1169.1</ele>
<time>2012-05-02T23:38:59Z</time>
<desc>lat.=42.918438, lon.=19.086721, Alt.=1177.860352m. Speed=31.068001m/h.</desc>
<speed>8.630000</speed>
</trkpt>
<trkpt lat="42.919430" lon="19.084808">
<ele>1164.1</ele>
<time>2012-05-02T23:39:14Z</time>
<desc>lat.=42.919430, lon.=19.084808, Alt.=1167.610352m. Speed=50.400002m/h.</desc>
<speed>14.000000</speed>
</trkpt>
<trkpt lat="42.919914" lon="19.083273">
<ele>1168.2</ele>
<time>2012-05-02T23:39:24Z</time>
<desc>lat.=42.919914, lon.=19.083273, Alt.=1159.141602m. Speed=43.344002m/h.</desc>
<speed>12.040000</speed>
</trkpt>
<trkpt lat="42.920235" lon="19.082806">
<ele>1157.6</ele>
<time>2012-05-02T23:39:29Z</time>
<desc>lat.=42.920235, lon.=19.082806, Alt.=1156.766602m. Speed=34.703999m/h.</desc>
<speed>9.640000</speed>
</trkpt>
<trkpt lat="42.921410" lon="19.081945">
<ele>1149.4</ele>
<time>2012-05-02T23:39:44Z</time>
<desc>lat.=42.921410, lon.=19.081945, Alt.=1150.016602m. Speed=37.584000m/h.</desc>
<speed>10.440000</speed>
</trkpt>
<trkpt lat="42.922382" lon="19.081783">
<ele>1132.0</ele>
<time>2012-05-02T23:39:54Z</time>
<desc>lat.=42.922382, lon.=19.081783, Alt.=1145.641602m. Speed=41.112000m/h.</desc>
<speed>11.420000</speed>
</trkpt>
<trkpt lat="42.922852" lon="19.081480">
<ele>1137.3</ele>
<time>2012-05-02T23:39:59Z</time>
<desc>lat.=42.922852, lon.=19.081480, Alt.=1142.454102m. Speed=41.688000m/h.</desc>
<speed>11.580000</speed>
</trkpt>
<trkpt lat="42.923615" lon="19.080563">
<ele>1135.7</ele>
<time>2012-05-02T23:40:09Z</time>
<desc>lat.=42.923615, lon.=19.080563, Alt.=1137.891602m. Speed=41.472000m/h.</desc>
<speed>11.520000</speed>
</trkpt>
<trkpt lat="42.924313" lon="19.078262">
<ele>1131.9</ele>
<time>2012-05-02T23:40:29Z</time>
<desc>lat.=42.924313, lon.=19.078262, Alt.=1128.360352m. Speed=39.636002m/h.</desc>
<speed>11.010000</speed>
</trkpt>
<trkpt lat="42.924255" lon="19.076923">
<ele>1133.7</ele>
<time>2012-05-02T23:40:39Z</time>
<desc>lat.=42.924255, lon.=19.076923, Alt.=1119.985352m. Speed=39.924000m/h.</desc>
<speed>11.090000</speed>
</trkpt>
<trkpt lat="42.925030" lon="19.075113">
<ele>1113.2</ele>
<time>2012-05-02T23:40:54Z</time>
<desc>lat.=42.925030, lon.=19.075113, Alt.=1110.266602m. Speed=42.551998m/h.</desc>
<speed>11.819999</speed>
</trkpt>
<trkpt lat="42.925411" lon="19.073757">
<ele>1113.7</ele>
<time>2012-05-02T23:41:04Z</time>
<desc>lat.=42.925411, lon.=19.073757, Alt.=1103.079102m. Speed=39.203999m/h.</desc>
<speed>10.890000</speed>
</trkpt>
<trkpt lat="42.926212" lon="19.073204">
<ele>1093.0</ele>
<time>2012-05-02T23:41:14Z</time>
<desc>lat.=42.926212, lon.=19.073204, Alt.=1099.516602m. Speed=39.203999m/h.</desc>
<speed>10.890000</speed>
</trkpt>
<trkpt lat="42.926849" lon="19.071581">
<ele>1089.6</ele>
<time>2012-05-02T23:41:29Z</time>
<desc>lat.=42.926849, lon.=19.071581, Alt.=1095.079102m. Speed=35.891998m/h.</desc>
<speed>9.970000</speed>
</trkpt>
<trkpt lat="42.927147" lon="19.071249">
<ele>1084.9</ele>
<time>2012-05-02T23:41:34Z</time>
<desc>lat.=42.927147, lon.=19.071249, Alt.=1093.047852m. Speed=32.616001m/h.</desc>
<speed>9.060000</speed>
</trkpt>
<trkpt lat="42.928661" lon="19.070717">
<ele>1073.1</ele>
<time>2012-05-02T23:41:49Z</time>
<desc>lat.=42.928661, lon.=19.070717, Alt.=1083.266602m. Speed=44.639999m/h.</desc>
<speed>12.400000</speed>
</trkpt>
<trkpt lat="42.930061" lon="19.069611">
<ele>1061.5</ele>
<time>2012-05-02T23:42:04Z</time>
<desc>lat.=42.930061, lon.=19.069611, Alt.=1072.204102m. Speed=27.216000m/h.</desc>
<speed>7.560000</speed>
</trkpt>
<trkpt lat="42.930595" lon="19.070093">
<ele>1051.7</ele>
<time>2012-05-02T23:42:14Z</time>
<desc>lat.=42.930595, lon.=19.070093, Alt.=1068.141602m. Speed=27.431999m/h.</desc>
<speed>7.620000</speed>
</trkpt>
<trkpt lat="42.931393" lon="19.070314">
<ele>1047.9</ele>
<time>2012-05-02T23:42:24Z</time>
<desc>lat.=42.931393, lon.=19.070314, Alt.=1062.829102m. Speed=34.776001m/h.</desc>
<speed>9.660000</speed>
</trkpt>
<trkpt lat="42.932285" lon="19.070148">
<ele>1045.9</ele>
<time>2012-05-02T23:42:34Z</time>
<desc>lat.=42.932285, lon.=19.070148, Alt.=1055.579102m. Speed=31.643999m/h.</desc>
<speed>8.790000</speed>
</trkpt>
<trkpt lat="42.933250" lon="19.070230">
<ele>1041.8</ele>
<time>2012-05-02T23:42:44Z</time>
<desc>lat.=42.933250, lon.=19.070230, Alt.=1052.391602m. Speed=37.584000m/h.</desc>
<speed>10.440000</speed>
</trkpt>
<trkpt lat="42.934155" lon="19.069872">
<ele>1038.2</ele>
<time>2012-05-02T23:42:54Z</time>
<desc>lat.=42.934155, lon.=19.069872, Alt.=1048.860352m. Speed=38.627998m/h.</desc>
<speed>10.730000</speed>
</trkpt>
<trkpt lat="42.938362" lon="19.071842">
<ele>1036.6</ele>
<time>2012-05-02T23:43:29Z</time>
<desc>lat.=42.938362, lon.=19.071842, Alt.=1043.860352m. Speed=56.880001m/h.</desc>
<speed>15.800000</speed>
</trkpt>
<trkpt lat="42.942013" lon="19.071787">
<ele>1032.1</ele>
<time>2012-05-02T23:43:54Z</time>
<desc>lat.=42.942013, lon.=19.071787, Alt.=1040.516602m. Speed=51.588001m/h.</desc>
<speed>14.330000</speed>
</trkpt>
<trkpt lat="42.942558" lon="19.072208">
<ele>1034.6</ele>
<time>2012-05-02T23:43:59Z</time>
<desc>lat.=42.942558, lon.=19.072208, Alt.=1042.079102m. Speed=50.507999m/h.</desc>
<speed>14.030000</speed>
</trkpt>
<trkpt lat="42.943428" lon="19.073483">
<ele>1041.4</ele>
<time>2012-05-02T23:44:09Z</time>
<desc>lat.=42.943428, lon.=19.073483, Alt.=1049.266602m. Speed=48.852001m/h.</desc>
<speed>13.570000</speed>
</trkpt>
<trkpt lat="42.943901" lon="19.073513">
<ele>1045.6</ele>
<time>2012-05-02T23:44:14Z</time>
<desc>lat.=42.943901, lon.=19.073513, Alt.=1053.110352m. Speed=33.480000m/h.</desc>
<speed>9.300000</speed>
</trkpt>
<trkpt lat="42.944210" lon="19.073191">
<ele>1046.8</ele>
<time>2012-05-02T23:44:19Z</time>
<desc>lat.=42.944210, lon.=19.073191, Alt.=1056.391602m. Speed=30.455999m/h.</desc>
<speed>8.460000</speed>
</trkpt>
<trkpt lat="42.944588" lon="19.073221">
<ele>1046.7</ele>
<time>2012-05-02T23:44:24Z</time>
<desc>lat.=42.944588, lon.=19.073221, Alt.=1057.360352m. Speed=36.612000m/h.</desc>
<speed>10.170000</speed>
</trkpt>
<trkpt lat="42.945538" lon="19.073658">
<ele>1054.4</ele>
<time>2012-05-02T23:44:34Z</time>
<desc>lat.=42.945538, lon.=19.073658, Alt.=1062.485352m. Speed=36.144001m/h.</desc>
<speed>10.040000</speed>
</trkpt>
<trkpt lat="42.945786" lon="19.074156">
<ele>1056.8</ele>
<time>2012-05-02T23:44:39Z</time>
<desc>lat.=42.945786, lon.=19.074156, Alt.=1064.735352m. Speed=38.771999m/h.</desc>
<speed>10.770000</speed>
</trkpt>
<trkpt lat="42.945816" lon="19.074797">
<ele>1063.2</ele>
<time>2012-05-02T23:44:44Z</time>
<desc>lat.=42.945816, lon.=19.074797, Alt.=1067.266602m. Speed=41.220001m/h.</desc>
<speed>11.450000</speed>
</trkpt>
<trkpt lat="42.945511" lon="19.076796">
<ele>1068.5</ele>
<time>2012-05-02T23:44:59Z</time>
<desc>lat.=42.945511, lon.=19.076796, Alt.=1071.391602m. Speed=36.576000m/h.</desc>
<speed>10.160000</speed>
</trkpt>
<trkpt lat="42.945789" lon="19.077213">
<ele>1073.0</ele>
<time>2012-05-02T23:45:04Z</time>
<desc>lat.=42.945789, lon.=19.077213, Alt.=1072.204102m. Speed=35.820000m/h.</desc>
<speed>9.950000</speed>
</trkpt>
<trkpt lat="42.946198" lon="19.077108">
<ele>1071.2</ele>
<time>2012-05-02T23:45:09Z</time>
<desc>lat.=42.946198, lon.=19.077108, Alt.=1072.954102m. Speed=31.572001m/h.</desc>
<speed>8.770000</speed>
</trkpt>
<trkpt lat="42.946522" lon="19.077314">
<ele>1073.2</ele>
<time>2012-05-02T23:45:14Z</time>
<desc>lat.=42.946522, lon.=19.077314, Alt.=1073.672852m. Speed=33.624001m/h.</desc>
<speed>9.340000</speed>
</trkpt>
<trkpt lat="42.946743" lon="19.078472">
<ele>1081.2</ele>
<time>2012-05-02T23:45:24Z</time>
<desc>lat.=42.946743, lon.=19.078472, Alt.=1077.454102m. Speed=36.035999m/h.</desc>
<speed>10.010000</speed>
</trkpt>
<trkpt lat="42.947453" lon="19.079056">
<ele>1084.2</ele>
<time>2012-05-02T23:45:34Z</time>
<desc>lat.=42.947453, lon.=19.079056, Alt.=1082.016602m. Speed=29.771999m/h.</desc>
<speed>8.270000</speed>
</trkpt>
<trkpt lat="42.948215" lon="19.080853">
<ele>1084.4</ele>
<time>2012-05-02T23:45:49Z</time>
<desc>lat.=42.948215, lon.=19.080853, Alt.=1077.641602m. Speed=48.276001m/h.</desc>
<speed>13.410000</speed>
</trkpt>
<trkpt lat="42.949074" lon="19.081968">
<ele>1085.3</ele>
<time>2012-05-02T23:45:59Z</time>
<desc>lat.=42.949074, lon.=19.081968, Alt.=1077.641602m. Speed=36.360001m/h.</desc>
<speed>10.100000</speed>
</trkpt>
<trkpt lat="42.949394" lon="19.085573">
<ele>1089.8</ele>
<time>2012-05-02T23:46:24Z</time>
<desc>lat.=42.949394, lon.=19.085573, Alt.=1082.985352m. Speed=35.820000m/h.</desc>
<speed>9.950000</speed>
</trkpt>
<trkpt lat="42.949978" lon="19.086266">
<ele>1084.5</ele>
<time>2012-05-02T23:46:34Z</time>
<desc>lat.=42.949978, lon.=19.086266, Alt.=1083.204102m. Speed=31.680000m/h.</desc>
<speed>8.800000</speed>
</trkpt>
<trkpt lat="42.950596" lon="19.088840">
<ele>1077.8</ele>
<time>2012-05-02T23:46:54Z</time>
<desc>lat.=42.950596, lon.=19.088840, Alt.=1080.797852m. Speed=33.048000m/h.</desc>
<speed>9.180000</speed>
</trkpt>
<trkpt lat="42.950424" lon="19.089319">
<ele>1075.5</ele>
<time>2012-05-02T23:46:59Z</time>
<desc>lat.=42.950424, lon.=19.089319, Alt.=1078.766602m. Speed=32.976002m/h.</desc>
<speed>9.160000</speed>
</trkpt>
<trkpt lat="42.949112" lon="19.089291">
<ele>1071.2</ele>
<time>2012-05-02T23:47:14Z</time>
<desc>lat.=42.949112, lon.=19.089291, Alt.=1082.141602m. Speed=32.723999m/h.</desc>
<speed>9.090000</speed>
</trkpt>
<trkpt lat="42.948784" lon="19.089598">
<ele>1068.2</ele>
<time>2012-05-02T23:47:19Z</time>
<desc>lat.=42.948784, lon.=19.089598, Alt.=1082.360352m. Speed=33.875999m/h.</desc>
<speed>9.410000</speed>
</trkpt>
<trkpt lat="42.948616" lon="19.090115">
<ele>1064.1</ele>
<time>2012-05-02T23:47:24Z</time>
<desc>lat.=42.948616, lon.=19.090115, Alt.=1082.172852m. Speed=30.672001m/h.</desc>
<speed>8.520000</speed>
</trkpt>
<trkpt lat="42.947819" lon="19.090658">
<ele>1060.7</ele>
<time>2012-05-02T23:47:34Z</time>
<desc>lat.=42.947819, lon.=19.090658, Alt.=1076.454102m. Speed=39.348000m/h.</desc>
<speed>10.930000</speed>
</trkpt>
<trkpt lat="42.946938" lon="19.092201">
<ele>1052.3</ele>
<time>2012-05-02T23:47:49Z</time>
<desc>lat.=42.946938, lon.=19.092201, Alt.=1066.829102m. Speed=34.632000m/h.</desc>
<speed>9.620000</speed>
</trkpt>
<trkpt lat="42.946117" lon="19.092546">
<ele>1050.6</ele>
<time>2012-05-02T23:47:59Z</time>
<desc>lat.=42.946117, lon.=19.092546, Alt.=1061.016602m. Speed=31.860001m/h.</desc>
<speed>8.850000</speed>
</trkpt>
<trkpt lat="42.945919" lon="19.093021">
<ele>1045.3</ele>
<time>2012-05-02T23:48:04Z</time>
<desc>lat.=42.945919, lon.=19.093021, Alt.=1057.391602m. Speed=27.612000m/h.</desc>
<speed>7.670000</speed>
</trkpt>
<trkpt lat="42.945919" lon="19.093359">
<ele>1040.5</ele>
<time>2012-05-02T23:48:09Z</time>
<desc>lat.=42.945919, lon.=19.093359, Alt.=1054.172852m. Speed=21.167999m/h.</desc>
<speed>5.880000</speed>
</trkpt>
<trkpt lat="42.946308" lon="19.092899">
<ele>1041.8</ele>
<time>2012-05-02T23:48:19Z</time>
<desc>lat.=42.946308, lon.=19.092899, Alt.=1049.454102m. Speed=18.576000m/h.</desc>
<speed>5.160000</speed>
</trkpt>
<trkpt lat="42.947472" lon="19.092684">
<ele>1030.3</ele>
<time>2012-05-02T23:48:34Z</time>
<desc>lat.=42.947472, lon.=19.092684, Alt.=1044.235352m. Speed=38.484001m/h.</desc>
<speed>10.690000</speed>
</trkpt>
<trkpt lat="42.948597" lon="19.091591">
<ele>1029.1</ele>
<time>2012-05-02T23:48:49Z</time>
<desc>lat.=42.948597, lon.=19.091591, Alt.=1036.079102m. Speed=31.139999m/h.</desc>
<speed>8.650000</speed>
</trkpt>
<trkpt lat="42.948818" lon="19.091652">
<ele>1021.6</ele>
<time>2012-05-02T23:48:54Z</time>
<desc>lat.=42.948818, lon.=19.091652, Alt.=1035.047852m. Speed=17.351999m/h.</desc>
<speed>4.820000</speed>
</trkpt>
<trkpt lat="42.948433" lon="19.092066">
<ele>1024.9</ele>
<time>2012-05-02T23:49:04Z</time>
<desc>lat.=42.948433, lon.=19.092066, Alt.=1032.641602m. Speed=26.028000m/h.</desc>
<speed>7.230000</speed>
</trkpt>
<trkpt lat="42.948009" lon="19.093000">
<ele>1015.1</ele>
<time>2012-05-02T23:49:14Z</time>
<desc>lat.=42.948009, lon.=19.093000, Alt.=1028.391602m. Speed=34.883999m/h.</desc>
<speed>9.690000</speed>
</trkpt>
<trkpt lat="42.947262" lon="19.093861">
<ele>1008.1</ele>
<time>2012-05-02T23:49:24Z</time>
<desc>lat.=42.947262, lon.=19.093861, Alt.=1023.070801m. Speed=39.383999m/h.</desc>
<speed>10.940000</speed>
</trkpt>
<trkpt lat="42.946815" lon="19.094734">
<ele>1003.5</ele>
<time>2012-05-02T23:49:34Z</time>
<desc>lat.=42.946815, lon.=19.094734, Alt.=1017.227051m. Speed=21.996000m/h.</desc>
<speed>6.110000</speed>
</trkpt>
<trkpt lat="42.946968" lon="19.094809">
<ele>1002.2</ele>
<time>2012-05-02T23:49:39Z</time>
<desc>lat.=42.946968, lon.=19.094809, Alt.=1013.773926m. Speed=17.568001m/h.</desc>
<speed>4.880000</speed>
</trkpt>
<trkpt lat="42.947098" lon="19.094542">
<ele>1002.5</ele>
<time>2012-05-02T23:49:44Z</time>
<desc>lat.=42.947098, lon.=19.094542, Alt.=1010.586426m. Speed=20.124001m/h.</desc>
<speed>5.590000</speed>
</trkpt>
<trkpt lat="42.949505" lon="19.092962">
<ele>986.9</ele>
<time>2012-05-02T23:50:19Z</time>
<desc>lat.=42.949505, lon.=19.092962, Alt.=998.867676m. Speed=17.784000m/h.</desc>
<speed>4.940000</speed>
</trkpt>
<trkpt lat="42.947678" lon="19.095539">
<ele>981.6</ele>
<time>2012-05-02T23:50:59Z</time>
<desc>lat.=42.947678, lon.=19.095539, Alt.=983.023926m. Speed=17.712000m/h.</desc>
<speed>4.920000</speed>
</trkpt>
<trkpt lat="42.948692" lon="19.094866">
<ele>962.0</ele>
<time>2012-05-02T23:51:19Z</time>
<desc>lat.=42.948692, lon.=19.094866, Alt.=974.148926m. Speed=29.340000m/h.</desc>
<speed>8.150000</speed>
</trkpt>
<trkpt lat="42.949497" lon="19.095041">
<ele>959.3</ele>
<time>2012-05-02T23:51:34Z</time>
<desc>lat.=42.949497, lon.=19.095041, Alt.=967.117676m. Speed=19.548000m/h.</desc>
<speed>5.430000</speed>
</trkpt>
<trkpt lat="42.948467" lon="19.095598">
<ele>954.2</ele>
<time>2012-05-02T23:51:54Z</time>
<desc>lat.=42.948467, lon.=19.095598, Alt.=960.336426m. Speed=29.520000m/h.</desc>
<speed>8.200000</speed>
</trkpt>
<trkpt lat="42.947475" lon="19.097496">
<ele>946.0</ele>
<time>2012-05-02T23:52:14Z</time>
<desc>lat.=42.947475, lon.=19.097496, Alt.=951.445801m. Speed=30.275999m/h.</desc>
<speed>8.410000</speed>
</trkpt>
<trkpt lat="42.947281" lon="19.098700">
<ele>937.6</ele>
<time>2012-05-02T23:52:24Z</time>
<desc>lat.=42.947281, lon.=19.098700, Alt.=943.789551m. Speed=33.551998m/h.</desc>
<speed>9.319999</speed>
</trkpt>
<trkpt lat="42.947250" lon="19.099810">
<ele>936.5</ele>
<time>2012-05-02T23:52:34Z</time>
<desc>lat.=42.947250, lon.=19.099810, Alt.=936.570801m. Speed=18.468000m/h.</desc>
<speed>5.130000</speed>
</trkpt>
<trkpt lat="42.947372" lon="19.099936">
<ele>933.2</ele>
<time>2012-05-02T23:52:39Z</time>
<desc>lat.=42.947372, lon.=19.099936, Alt.=934.289551m. Speed=17.604000m/h.</desc>
<speed>4.890000</speed>
</trkpt>
<trkpt lat="42.947430" lon="19.099308">
<ele>929.6</ele>
<time>2012-05-02T23:52:49Z</time>
<desc>lat.=42.947430, lon.=19.099308, Alt.=928.820801m. Speed=22.032000m/h.</desc>
<speed>6.120000</speed>
</trkpt>
<trkpt lat="42.948208" lon="19.098251">
<ele>924.3</ele>
<time>2012-05-02T23:53:04Z</time>
<desc>lat.=42.948208, lon.=19.098251, Alt.=924.727051m. Speed=33.911999m/h.</desc>
<speed>9.420000</speed>
</trkpt>
<trkpt lat="42.948322" lon="19.097719">
<ele>928.3</ele>
<time>2012-05-02T23:53:09Z</time>
<desc>lat.=42.948322, lon.=19.097719, Alt.=922.008301m. Speed=30.024000m/h.</desc>
<speed>8.340000</speed>
</trkpt>
<trkpt lat="42.948597" lon="19.097342">
<ele>921.0</ele>
<time>2012-05-02T23:53:14Z</time>
<desc>lat.=42.948597, lon.=19.097342, Alt.=919.711426m. Speed=33.048000m/h.</desc>
<speed>9.180000</speed>
</trkpt>
<trkpt lat="42.950737" lon="19.096802">
<ele>913.4</ele>
<time>2012-05-02T23:53:39Z</time>
<desc>lat.=42.950737, lon.=19.096802, Alt.=923.242676m. Speed=28.476000m/h.</desc>
<speed>7.910000</speed>
</trkpt>
<trkpt lat="42.951134" lon="19.096020">
<ele>898.2</ele>
<time>2012-05-02T23:53:49Z</time>
<desc>lat.=42.951134, lon.=19.096020, Alt.=905.133301m. Speed=25.848000m/h.</desc>
<speed>7.180000</speed>
</trkpt>
<trkpt lat="42.951721" lon="19.095659">
<ele>898.2</ele>
<time>2012-05-02T23:53:59Z</time>
<desc>lat.=42.951721, lon.=19.095659, Alt.=904.445801m. Speed=32.363998m/h.</desc>
<speed>8.990000</speed>
</trkpt>
<trkpt lat="42.952015" lon="19.095236">
<ele>893.8</ele>
<time>2012-05-02T23:54:04Z</time>
<desc>lat.=42.952015, lon.=19.095236, Alt.=902.305176m. Speed=36.035999m/h.</desc>
<speed>10.010000</speed>
</trkpt>
<trkpt lat="42.952000" lon="19.094290">
<ele>894.4</ele>
<time>2012-05-02T23:54:14Z</time>
<desc>lat.=42.952000, lon.=19.094290, Alt.=897.492676m. Speed=20.016001m/h.</desc>
<speed>5.560000</speed>
</trkpt>
<trkpt lat="42.952175" lon="19.094362">
<ele>884.0</ele>
<time>2012-05-02T23:54:19Z</time>
<desc>lat.=42.952175, lon.=19.094362, Alt.=895.180176m. Speed=19.224001m/h.</desc>
<speed>5.340000</speed>
</trkpt>
<trkpt lat="42.952412" lon="19.095734">
<ele>870.7</ele>
<time>2012-05-02T23:54:34Z</time>
<desc>lat.=42.952412, lon.=19.095734, Alt.=887.883301m. Speed=27.972000m/h.</desc>
<speed>7.770000</speed>
</trkpt>
<trkpt lat="42.951912" lon="19.096611">
<ele>871.7</ele>
<time>2012-05-02T23:54:44Z</time>
<desc>lat.=42.951912, lon.=19.096611, Alt.=882.648926m. Speed=35.063999m/h.</desc>
<speed>9.740000</speed>
</trkpt>
<trkpt lat="42.951630" lon="19.097809">
<ele>854.3</ele>
<time>2012-05-02T23:54:54Z</time>
<desc>lat.=42.951630, lon.=19.097809, Alt.=876.852051m. Speed=37.619999m/h.</desc>
<speed>10.450000</speed>
</trkpt>
<trkpt lat="42.951366" lon="19.098230">
<ele>847.8</ele>
<time>2012-05-02T23:54:59Z</time>
<desc>lat.=42.951366, lon.=19.098230, Alt.=874.180176m. Speed=30.959999m/h.</desc>
<speed>8.600000</speed>
</trkpt>
<trkpt lat="42.950527" lon="19.099146">
<ele>839.6</ele>
<time>2012-05-02T23:55:14Z</time>
<desc>lat.=42.950527, lon.=19.099146, Alt.=865.648926m. Speed=26.964001m/h.</desc>
<speed>7.490000</speed>
</trkpt>
<trkpt lat="42.949913" lon="19.099363">
<ele>851.8</ele>
<time>2012-05-02T23:55:24Z</time>
<desc>lat.=42.949913, lon.=19.099363, Alt.=860.789551m. Speed=23.436001m/h.</desc>
<speed>6.510000</speed>
</trkpt>
<trkpt lat="42.949917" lon="19.099733">
<ele>859.7</ele>
<time>2012-05-02T23:55:29Z</time>
<desc>lat.=42.949917, lon.=19.099733, Alt.=858.961426m. Speed=26.927999m/h.</desc>
<speed>7.480000</speed>
</trkpt>
<trkpt lat="42.950245" lon="19.099964">
<ele>858.7</ele>
<time>2012-05-02T23:55:34Z</time>
<desc>lat.=42.950245, lon.=19.099964, Alt.=858.242676m. Speed=36.216000m/h.</desc>
<speed>10.060000</speed>
</trkpt>
<trkpt lat="42.950672" lon="19.099890">
<ele>849.4</ele>
<time>2012-05-02T23:55:39Z</time>
<desc>lat.=42.950672, lon.=19.099890, Alt.=857.008301m. Speed=38.304001m/h.</desc>
<speed>10.640000</speed>
</trkpt>
<trkpt lat="42.952183" lon="19.098925">
<ele>856.0</ele>
<time>2012-05-02T23:55:54Z</time>
<desc>lat.=42.952183, lon.=19.098925, Alt.=860.148926m. Speed=41.292000m/h.</desc>
<speed>11.470000</speed>
</trkpt>
<trkpt lat="42.953354" lon="19.097954">
<ele>848.5</ele>
<time>2012-05-02T23:56:09Z</time>
<desc>lat.=42.953354, lon.=19.097954, Alt.=857.805176m. Speed=33.515999m/h.</desc>
<speed>9.310000</speed>
</trkpt>
<trkpt lat="42.953781" lon="19.098061">
<ele>851.4</ele>
<time>2012-05-02T23:56:14Z</time>
<desc>lat.=42.953781, lon.=19.098061, Alt.=855.148926m. Speed=36.396000m/h.</desc>
<speed>10.110000</speed>
</trkpt>
<trkpt lat="42.954685" lon="19.097769">
<ele>847.0</ele>
<time>2012-05-02T23:56:24Z</time>
<desc>lat.=42.954685, lon.=19.097769, Alt.=850.289551m. Speed=36.936001m/h.</desc>
<speed>10.260000</speed>
</trkpt>
<trkpt lat="42.956619" lon="19.096163">
<ele>833.8</ele>
<time>2012-05-02T23:56:49Z</time>
<desc>lat.=42.956619, lon.=19.096163, Alt.=848.977051m. Speed=35.604000m/h.</desc>
<speed>9.890000</speed>
</trkpt>
<trkpt lat="42.957008" lon="19.096121">
<ele>837.8</ele>
<time>2012-05-02T23:56:54Z</time>
<desc>lat.=42.957008, lon.=19.096121, Alt.=849.820801m. Speed=31.752001m/h.</desc>
<speed>8.820000</speed>
</trkpt>
<trkpt lat="42.957466" lon="19.096603">
<ele>835.2</ele>
<time>2012-05-02T23:57:04Z</time>
<desc>lat.=42.957466, lon.=19.096603, Alt.=849.711426m. Speed=23.076000m/h.</desc>
<speed>6.410000</speed>
</trkpt>
<trkpt lat="42.957710" lon="19.096378">
<ele>829.6</ele>
<time>2012-05-02T23:57:09Z</time>
<desc>lat.=42.957710, lon.=19.096378, Alt.=850.195801m. Speed=23.652000m/h.</desc>
<speed>6.570000</speed>
</trkpt>
<trkpt lat="42.957687" lon="19.095341">
<ele>828.5</ele>
<time>2012-05-02T23:57:19Z</time>
<desc>lat.=42.957687, lon.=19.095341, Alt.=850.680176m. Speed=26.351999m/h.</desc>
<speed>7.320000</speed>
</trkpt>
<trkpt lat="42.957802" lon="19.094988">
<ele>834.9</ele>
<time>2012-05-02T23:57:24Z</time>
<desc>lat.=42.957802, lon.=19.094988, Alt.=850.570801m. Speed=25.955999m/h.</desc>
<speed>7.210000</speed>
</trkpt>
<trkpt lat="42.959827" lon="19.093515">
<ele>847.3</ele>
<time>2012-05-02T23:57:49Z</time>
<desc>lat.=42.959827, lon.=19.093515, Alt.=860.461426m. Speed=45.216000m/h.</desc>
<speed>12.560000</speed>
</trkpt>
<trkpt lat="42.961697" lon="19.092957">
<ele>852.5</ele>
<time>2012-05-02T23:58:04Z</time>
<desc>lat.=42.961697, lon.=19.092957, Alt.=865.523926m. Speed=52.380001m/h.</desc>
<speed>14.550000</speed>
</trkpt>
<trkpt lat="42.962708" lon="19.091730">
<ele>858.6</ele>
<time>2012-05-02T23:58:14Z</time>
<desc>lat.=42.962708, lon.=19.091730, Alt.=871.430176m. Speed=53.063999m/h.</desc>
<speed>14.740000</speed>
</trkpt>
<trkpt lat="42.963982" lon="19.091059">
<ele>866.1</ele>
<time>2012-05-02T23:58:24Z</time>
<desc>lat.=42.963982, lon.=19.091059, Alt.=880.164551m. Speed=56.448002m/h.</desc>
<speed>15.680001</speed>
</trkpt>
<trkpt lat="42.965202" lon="19.089867">
<ele>874.6</ele>
<time>2012-05-02T23:58:34Z</time>
<desc>lat.=42.965202, lon.=19.089867, Alt.=888.445801m. Speed=60.624001m/h.</desc>
<speed>16.840000</speed>
</trkpt>
<trkpt lat="42.967567" lon="19.089205">
<ele>889.6</ele>
<time>2012-05-02T23:58:49Z</time>
<desc>lat.=42.967567, lon.=19.089205, Alt.=901.648926m. Speed=66.491997m/h.</desc>
<speed>18.469999</speed>
</trkpt>
<trkpt lat="42.970894" lon="19.086077">
<ele>917.4</ele>
<time>2012-05-02T23:59:14Z</time>
<desc>lat.=42.970894, lon.=19.086077, Alt.=923.570801m. Speed=62.459999m/h.</desc>
<speed>17.350000</speed>
</trkpt>
<trkpt lat="42.972450" lon="19.085590">
<ele>927.0</ele>
<time>2012-05-02T23:59:24Z</time>
<desc>lat.=42.972450, lon.=19.085590, Alt.=933.617676m. Speed=59.976002m/h.</desc>
<speed>16.660000</speed>
</trkpt>
<trkpt lat="42.975174" lon="19.083891">
<ele>944.7</ele>
<time>2012-05-02T23:59:44Z</time>
<desc>lat.=42.975174, lon.=19.083891, Alt.=955.086426m. Speed=56.916000m/h.</desc>
<speed>15.810000</speed>
</trkpt>
<trkpt lat="42.977062" lon="19.083729">
<ele>962.5</ele>
<time>2012-05-02T23:59:59Z</time>
<desc>lat.=42.977062, lon.=19.083729, Alt.=966.008301m. Speed=52.236000m/h.</desc>
<speed>14.510000</speed>
</trkpt>
<trkpt lat="42.979115" lon="19.082844">
<ele>970.6</ele>
<time>2012-05-03T00:00:14Z</time>
<desc>lat.=42.979115, lon.=19.082844, Alt.=982.117676m. Speed=55.944000m/h.</desc>
<speed>15.540000</speed>
</trkpt>
<trkpt lat="42.979656" lon="19.082384">
<ele>984.7</ele>
<time>2012-05-03T00:00:19Z</time>
<desc>lat.=42.979656, lon.=19.082384, Alt.=986.695801m. Speed=50.507999m/h.</desc>
<speed>14.030000</speed>
</trkpt>
<trkpt lat="42.980049" lon="19.081696">
<ele>988.5</ele>
<time>2012-05-03T00:00:24Z</time>
<desc>lat.=42.980049, lon.=19.081696, Alt.=992.695801m. Speed=53.820000m/h.</desc>
<speed>14.950000</speed>
</trkpt>
<trkpt lat="42.980247" lon="19.080807">
<ele>993.3</ele>
<time>2012-05-03T00:00:29Z</time>
<desc>lat.=42.980247, lon.=19.080807, Alt.=997.195801m. Speed=55.439999m/h.</desc>
<speed>15.400000</speed>
</trkpt>
<trkpt lat="42.979958" lon="19.077929">
<ele>996.0</ele>
<time>2012-05-03T00:00:44Z</time>
<desc>lat.=42.979958, lon.=19.077929, Alt.=1006.273926m. Speed=56.015999m/h.</desc>
<speed>15.560000</speed>
</trkpt>
<trkpt lat="42.980038" lon="19.076958">
<ele>1003.5</ele>
<time>2012-05-03T00:00:49Z</time>
<desc>lat.=42.980038, lon.=19.076958, Alt.=1010.055176m. Speed=60.840000m/h.</desc>
<speed>16.900000</speed>
</trkpt>
<trkpt lat="42.980385" lon="19.076067">
<ele>1007.2</ele>
<time>2012-05-03T00:00:54Z</time>
<desc>lat.=42.980385, lon.=19.076067, Alt.=1014.914551m. Speed=58.644001m/h.</desc>
<speed>16.290000</speed>
</trkpt>
<trkpt lat="42.981609" lon="19.074932">
<ele>1013.3</ele>
<time>2012-05-03T00:01:04Z</time>
<desc>lat.=42.981609, lon.=19.074932, Alt.=1026.329102m. Speed=61.776001m/h.</desc>
<speed>17.160000</speed>
</trkpt>
<trkpt lat="42.985008" lon="19.072792">
<ele>1037.2</ele>
<time>2012-05-03T00:01:29Z</time>
<desc>lat.=42.985008, lon.=19.072792, Alt.=1047.985352m. Speed=50.796001m/h.</desc>
<speed>14.110000</speed>
</trkpt>
<trkpt lat="42.986603" lon="19.071159">
<ele>1052.4</ele>
<time>2012-05-03T00:01:44Z</time>
<desc>lat.=42.986603, lon.=19.071159, Alt.=1059.610352m. Speed=52.344002m/h.</desc>
<speed>14.540000</speed>
</trkpt>
<trkpt lat="42.987278" lon="19.071182">
<ele>1054.0</ele>
<time>2012-05-03T00:01:49Z</time>
<desc>lat.=42.987278, lon.=19.071182, Alt.=1064.891602m. Speed=57.492001m/h.</desc>
<speed>15.970000</speed>
</trkpt>
<trkpt lat="42.987957" lon="19.071503">
<ele>1066.1</ele>
<time>2012-05-03T00:01:54Z</time>
<desc>lat.=42.987957, lon.=19.071503, Alt.=1068.422852m. Speed=56.340000m/h.</desc>
<speed>15.650000</speed>
</trkpt>
<trkpt lat="42.988552" lon="19.072058">
<ele>1075.3</ele>
<time>2012-05-03T00:01:59Z</time>
<desc>lat.=42.988552, lon.=19.072058, Alt.=1075.454102m. Speed=59.327999m/h.</desc>
<speed>16.480000</speed>
</trkpt>
<trkpt lat="42.989563" lon="19.073565">
<ele>1089.7</ele>
<time>2012-05-03T00:02:09Z</time>
<desc>lat.=42.989563, lon.=19.073565, Alt.=1085.704102m. Speed=59.903999m/h.</desc>
<speed>16.640000</speed>
</trkpt>
<trkpt lat="42.990292" lon="19.073839">
<ele>1100.1</ele>
<time>2012-05-03T00:02:14Z</time>
<desc>lat.=42.990292, lon.=19.073839, Alt.=1090.579102m. Speed=63.071999m/h.</desc>
<speed>17.520000</speed>
</trkpt>
<trkpt lat="42.992802" lon="19.073841">
<ele>1121.2</ele>
<time>2012-05-03T00:02:29Z</time>
<desc>lat.=42.992802, lon.=19.073841, Alt.=1100.766602m. Speed=66.132004m/h.</desc>
<speed>18.370001</speed>
</trkpt>
<trkpt lat="42.994259" lon="19.074886">
<ele>1139.7</ele>
<time>2012-05-03T00:02:39Z</time>
<desc>lat.=42.994259, lon.=19.074886, Alt.=1117.235352m. Speed=63.972000m/h.</desc>
<speed>17.770000</speed>
</trkpt>
<trkpt lat="42.997284" lon="19.076057">
<ele>1165.6</ele>
<time>2012-05-03T00:02:59Z</time>
<desc>lat.=42.997284, lon.=19.076057, Alt.=1142.766602m. Speed=64.440002m/h.</desc>
<speed>17.900001</speed>
</trkpt>
<trkpt lat="42.998055" lon="19.076326">
<ele>1171.6</ele>
<time>2012-05-03T00:03:04Z</time>
<desc>lat.=42.998055, lon.=19.076326, Alt.=1148.547852m. Speed=63.612000m/h.</desc>
<speed>17.670000</speed>
</trkpt>
<trkpt lat="43.000420" lon="19.076582">
<ele>1182.4</ele>
<time>2012-05-03T00:03:19Z</time>
<desc>lat.=43.000420, lon.=19.076582, Alt.=1161.047852m. Speed=62.316002m/h.</desc>
<speed>17.310001</speed>
</trkpt>
<trkpt lat="43.004547" lon="19.078075">
<ele>1201.5</ele>
<time>2012-05-03T00:03:44Z</time>
<desc>lat.=43.004547, lon.=19.078075, Alt.=1186.204102m. Speed=70.379997m/h.</desc>
<speed>19.549999</speed>
</trkpt>
<trkpt lat="43.005421" lon="19.078138">
<ele>1203.3</ele>
<time>2012-05-03T00:03:49Z</time>
<desc>lat.=43.005421, lon.=19.078138, Alt.=1190.797852m. Speed=69.120003m/h.</desc>
<speed>19.200001</speed>
</trkpt>
<trkpt lat="43.009113" lon="19.077671">
<ele>1234.5</ele>
<time>2012-05-03T00:04:09Z</time>
<desc>lat.=43.009113, lon.=19.077671, Alt.=1215.454102m. Speed=74.447998m/h.</desc>
<speed>20.679999</speed>
</trkpt>
<trkpt lat="43.009926" lon="19.077240">
<ele>1230.5</ele>
<time>2012-05-03T00:04:14Z</time>
<desc>lat.=43.009926, lon.=19.077240, Alt.=1224.110352m. Speed=68.400002m/h.</desc>
<speed>19.000000</speed>
</trkpt>
<trkpt lat="43.011204" lon="19.076199">
<ele>1245.6</ele>
<time>2012-05-03T00:04:24Z</time>
<desc>lat.=43.011204, lon.=19.076199, Alt.=1235.360352m. Speed=50.292000m/h.</desc>
<speed>13.970000</speed>
</trkpt>
<trkpt lat="43.011845" lon="19.076231">
<ele>1249.7</ele>
<time>2012-05-03T00:04:29Z</time>
<desc>lat.=43.011845, lon.=19.076231, Alt.=1237.360352m. Speed=54.756001m/h.</desc>
<speed>15.210000</speed>
</trkpt>
<trkpt lat="43.012444" lon="19.076773">
<ele>1253.3</ele>
<time>2012-05-03T00:04:34Z</time>
<desc>lat.=43.012444, lon.=19.076773, Alt.=1240.829102m. Speed=64.188004m/h.</desc>
<speed>17.830001</speed>
</trkpt>
<trkpt lat="43.012856" lon="19.077793">
<ele>1259.6</ele>
<time>2012-05-03T00:04:39Z</time>
<desc>lat.=43.012856, lon.=19.077793, Alt.=1244.860352m. Speed=69.120003m/h.</desc>
<speed>19.200001</speed>
</trkpt>
<trkpt lat="43.013165" lon="19.078897">
<ele>1257.1</ele>
<time>2012-05-03T00:04:44Z</time>
<desc>lat.=43.013165, lon.=19.078897, Alt.=1247.485352m. Speed=69.444000m/h.</desc>
<speed>19.290000</speed>
</trkpt>
<trkpt lat="43.013485" lon="19.082493">
<ele>1268.9</ele>
<time>2012-05-03T00:04:59Z</time>
<desc>lat.=43.013485, lon.=19.082493, Alt.=1261.641602m. Speed=60.875999m/h.</desc>
<speed>16.910000</speed>
</trkpt>
<trkpt lat="43.013966" lon="19.083298">
<ele>1278.7</ele>
<time>2012-05-03T00:05:04Z</time>
<desc>lat.=43.013966, lon.=19.083298, Alt.=1263.454102m. Speed=65.484001m/h.</desc>
<speed>18.190000</speed>
</trkpt>
<trkpt lat="43.014767" lon="19.083614">
<ele>1269.0</ele>
<time>2012-05-03T00:05:09Z</time>
<desc>lat.=43.014767, lon.=19.083614, Alt.=1264.891602m. Speed=69.947998m/h.</desc>
<speed>19.429999</speed>
</trkpt>
<trkpt lat="43.016468" lon="19.083630">
<ele>1276.2</ele>
<time>2012-05-03T00:05:19Z</time>
<desc>lat.=43.016468, lon.=19.083630, Alt.=1271.579102m. Speed=64.223999m/h.</desc>
<speed>17.840000</speed>
</trkpt>
<trkpt lat="43.017227" lon="19.083925">
<ele>1301.4</ele>
<time>2012-05-03T00:05:24Z</time>
<desc>lat.=43.017227, lon.=19.083925, Alt.=1274.985352m. Speed=60.984001m/h.</desc>
<speed>16.940000</speed>
</trkpt>
<trkpt lat="43.018070" lon="19.084574">
<ele>1283.4</ele>
<time>2012-05-03T00:05:30Z</time>
<desc>lat.=43.018070, lon.=19.084574, Alt.=1279.079102m. Speed=66.744003m/h.</desc>
<speed>18.540001</speed>
</trkpt>
<trkpt lat="43.018738" lon="19.085365">
<ele>1280.8</ele>
<time>2012-05-03T00:05:35Z</time>
<desc>lat.=43.018738, lon.=19.085365, Alt.=1282.141602m. Speed=69.839996m/h.</desc>
<speed>19.399999</speed>
</trkpt>
<trkpt lat="43.026199" lon="19.089663">
<ele>1321.2</ele>
<time>2012-05-03T00:06:15Z</time>
<desc>lat.=43.026199, lon.=19.089663, Alt.=1318.735352m. Speed=78.335999m/h.</desc>
<speed>21.760000</speed>
</trkpt>
<trkpt lat="43.027138" lon="19.090036">
<ele>1322.4</ele>
<time>2012-05-03T00:06:20Z</time>
<desc>lat.=43.027138, lon.=19.090036, Alt.=1321.016602m. Speed=79.199997m/h.</desc>
<speed>21.999999</speed>
</trkpt>
<trkpt lat="43.028111" lon="19.090048">
<ele>1323.8</ele>
<time>2012-05-03T00:06:25Z</time>
<desc>lat.=43.028111, lon.=19.090048, Alt.=1324.485352m. Speed=78.047997m/h.</desc>
<speed>21.679999</speed>
</trkpt>
<trkpt lat="43.029003" lon="19.089748">
<ele>1334.6</ele>
<time>2012-05-03T00:06:30Z</time>
<desc>lat.=43.029003, lon.=19.089748, Alt.=1327.672852m. Speed=70.739998m/h.</desc>
<speed>19.649999</speed>
</trkpt>
<trkpt lat="43.029785" lon="19.089119">
<ele>1320.5</ele>
<time>2012-05-03T00:06:35Z</time>
<desc>lat.=43.029785, lon.=19.089119, Alt.=1331.297852m. Speed=73.008003m/h.</desc>
<speed>20.280001</speed>
</trkpt>
<trkpt lat="43.032070" lon="19.085430">
<ele>1343.9</ele>
<time>2012-05-03T00:06:55Z</time>
<desc>lat.=43.032070, lon.=19.085430, Alt.=1353.766602m. Speed=70.056000m/h.</desc>
<speed>19.460000</speed>
</trkpt>
<trkpt lat="43.034138" lon="19.083307">
<ele>1372.6</ele>
<time>2012-05-03T00:07:10Z</time>
<desc>lat.=43.034138, lon.=19.083307, Alt.=1367.829102m. Speed=66.996002m/h.</desc>
<speed>18.610001</speed>
</trkpt>
<trkpt lat="43.035618" lon="19.082129">
<ele>1376.2</ele>
<time>2012-05-03T00:07:20Z</time>
<desc>lat.=43.035618, lon.=19.082129, Alt.=1378.735352m. Speed=71.099998m/h.</desc>
<speed>19.750000</speed>
</trkpt>
<trkpt lat="43.041740" lon="19.079515">
<ele>1438.1</ele>
<time>2012-05-03T00:07:55Z</time>
<desc>lat.=43.041740, lon.=19.079515, Alt.=1422.735352m. Speed=70.272003m/h.</desc>
<speed>19.520001</speed>
</trkpt>
<trkpt lat="43.043304" lon="19.079393">
<ele>1453.4</ele>
<time>2012-05-03T00:08:05Z</time>
<desc>lat.=43.043304, lon.=19.079393, Alt.=1431.704102m. Speed=62.388000m/h.</desc>
<speed>17.330000</speed>
</trkpt>
<trkpt lat="43.044907" lon="19.079939">
<ele>1530.8</ele>
<time>2012-05-03T00:08:15Z</time>
<desc>lat.=43.044907, lon.=19.079939, Alt.=1431.735352m. Speed=67.788002m/h.</desc>
<speed>18.830001</speed>
</trkpt>
<trkpt lat="43.056091" lon="19.102453">
<ele>1458.6</ele>
<time>2012-05-03T00:09:50Z</time>
<desc>lat.=43.056091, lon.=19.102453, Alt.=1461.391602m. Speed=68.940002m/h.</desc>
<speed>19.150001</speed>
</trkpt>
<trkpt lat="43.058514" lon="19.104118">
<ele>1444.2</ele>
<time>2012-05-03T00:10:05Z</time>
<desc>lat.=43.058514, lon.=19.104118, Alt.=1453.891602m. Speed=71.783997m/h.</desc>
<speed>19.939999</speed>
</trkpt>
<trkpt lat="43.059608" lon="19.106304">
<ele>1442.1</ele>
<time>2012-05-03T00:10:15Z</time>
<desc>lat.=43.059608, lon.=19.106304, Alt.=1449.641602m. Speed=76.428001m/h.</desc>
<speed>21.230000</speed>
</trkpt>
<trkpt lat="43.060410" lon="19.107010">
<ele>1434.3</ele>
<time>2012-05-03T00:10:20Z</time>
<desc>lat.=43.060410, lon.=19.107010, Alt.=1447.329102m. Speed=76.211998m/h.</desc>
<speed>21.169999</speed>
</trkpt>
<trkpt lat="43.062229" lon="19.107355">
<ele>1430.0</ele>
<time>2012-05-03T00:10:30Z</time>
<desc>lat.=43.062229, lon.=19.107355, Alt.=1443.110352m. Speed=70.416000m/h.</desc>
<speed>19.560000</speed>
</trkpt>
<trkpt lat="43.063877" lon="19.108139">
<ele>1425.4</ele>
<time>2012-05-03T00:10:40Z</time>
<desc>lat.=43.063877, lon.=19.108139, Alt.=1441.641602m. Speed=67.788002m/h.</desc>
<speed>18.830001</speed>
</trkpt>
<trkpt lat="43.064686" lon="19.108221">
<ele>1430.7</ele>
<time>2012-05-03T00:10:45Z</time>
<desc>lat.=43.064686, lon.=19.108221, Alt.=1439.141602m. Speed=64.152000m/h.</desc>
<speed>17.820000</speed>
</trkpt>
<trkpt lat="43.068024" lon="19.106310">
<ele>1435.2</ele>
<time>2012-05-03T00:11:05Z</time>
<desc>lat.=43.068024, lon.=19.106310, Alt.=1441.110352m. Speed=63.035999m/h.</desc>
<speed>17.510000</speed>
</trkpt>
<trkpt lat="43.069725" lon="19.103937">
<ele>1435.0</ele>
<time>2012-05-03T00:11:20Z</time>
<desc>lat.=43.069725, lon.=19.103937, Alt.=1445.422852m. Speed=68.148003m/h.</desc>
<speed>18.930001</speed>
</trkpt>
<trkpt lat="43.072971" lon="19.102238">
<ele>1459.1</ele>
<time>2012-05-03T00:11:40Z</time>
<desc>lat.=43.072971, lon.=19.102238, Alt.=1469.516602m. Speed=69.227997m/h.</desc>
<speed>19.229999</speed>
</trkpt>
<trkpt lat="43.075142" lon="19.100418">
<ele>1476.7</ele>
<time>2012-05-03T00:11:55Z</time>
<desc>lat.=43.075142, lon.=19.100418, Alt.=1487.329102m. Speed=68.472000m/h.</desc>
<speed>19.020000</speed>
</trkpt>
<trkpt lat="43.075996" lon="19.100437">
<ele>1482.8</ele>
<time>2012-05-03T00:12:00Z</time>
<desc>lat.=43.075996, lon.=19.100437, Alt.=1494.110352m. Speed=69.120003m/h.</desc>
<speed>19.200001</speed>
</trkpt>
<trkpt lat="43.076729" lon="19.101082">
<ele>1489.3</ele>
<time>2012-05-03T00:12:05Z</time>
<desc>lat.=43.076729, lon.=19.101082, Alt.=1500.860352m. Speed=70.884003m/h.</desc>
<speed>19.690001</speed>
</trkpt>
<trkpt lat="43.078056" lon="19.104296">
<ele>1512.9</ele>
<time>2012-05-03T00:12:20Z</time>
<desc>lat.=43.078056, lon.=19.104296, Alt.=1519.704102m. Speed=67.680000m/h.</desc>
<speed>18.800000</speed>
</trkpt>
<trkpt lat="43.078732" lon="19.104933">
<ele>1512.9</ele>
<time>2012-05-03T00:12:25Z</time>
<desc>lat.=43.078732, lon.=19.104933, Alt.=1522.391602m. Speed=66.059998m/h.</desc>
<speed>18.349999</speed>
</trkpt>
<trkpt lat="43.079556" lon="19.105001">
<ele>1509.8</ele>
<time>2012-05-03T00:12:30Z</time>
<desc>lat.=43.079556, lon.=19.105001, Alt.=1520.547852m. Speed=68.472000m/h.</desc>
<speed>19.020000</speed>
</trkpt>
<trkpt lat="43.080345" lon="19.104507">
<ele>1511.5</ele>
<time>2012-05-03T00:12:35Z</time>
<desc>lat.=43.080345, lon.=19.104507, Alt.=1519.485352m. Speed=72.108002m/h.</desc>
<speed>20.030000</speed>
</trkpt>
<trkpt lat="43.081757" lon="19.103186">
<ele>1510.0</ele>
<time>2012-05-03T00:12:45Z</time>
<desc>lat.=43.081757, lon.=19.103186, Alt.=1515.860352m. Speed=62.748001m/h.</desc>
<speed>17.430000</speed>
</trkpt>
<trkpt lat="43.082481" lon="19.102942">
<ele>1507.5</ele>
<time>2012-05-03T00:12:50Z</time>
<desc>lat.=43.082481, lon.=19.102942, Alt.=1515.797852m. Speed=57.383999m/h.</desc>
<speed>15.940000</speed>
</trkpt>
<trkpt lat="43.083221" lon="19.103058">
<ele>1501.6</ele>
<time>2012-05-03T00:12:55Z</time>
<desc>lat.=43.083221, lon.=19.103058, Alt.=1514.422852m. Speed=61.740002m/h.</desc>
<speed>17.150000</speed>
</trkpt>
<trkpt lat="43.084782" lon="19.103857">
<ele>1501.4</ele>
<time>2012-05-03T00:13:05Z</time>
<desc>lat.=43.084782, lon.=19.103857, Alt.=1514.735352m. Speed=66.599998m/h.</desc>
<speed>18.500000</speed>
</trkpt>
<trkpt lat="43.086475" lon="19.104017">
<ele>1508.6</ele>
<time>2012-05-03T00:13:15Z</time>
<desc>lat.=43.086475, lon.=19.104017, Alt.=1516.735352m. Speed=67.463997m/h.</desc>
<speed>18.739999</speed>
</trkpt>
<trkpt lat="43.088005" lon="19.104994">
<ele>1508.9</ele>
<time>2012-05-03T00:13:25Z</time>
<desc>lat.=43.088005, lon.=19.104994, Alt.=1519.391602m. Speed=66.708000m/h.</desc>
<speed>18.530000</speed>
</trkpt>
<trkpt lat="43.088818" lon="19.105204">
<ele>1506.9</ele>
<time>2012-05-03T00:13:30Z</time>
<desc>lat.=43.088818, lon.=19.105204, Alt.=1519.860352m. Speed=68.255997m/h.</desc>
<speed>18.959999</speed>
</trkpt>
<trkpt lat="43.090603" lon="19.105026">
<ele>1506.0</ele>
<time>2012-05-03T00:13:40Z</time>
<desc>lat.=43.090603, lon.=19.105026, Alt.=1518.672852m. Speed=69.155998m/h.</desc>
<speed>19.210000</speed>
</trkpt>
<trkpt lat="43.091442" lon="19.105207">
<ele>1506.4</ele>
<time>2012-05-03T00:13:45Z</time>
<desc>lat.=43.091442, lon.=19.105207, Alt.=1518.235352m. Speed=67.176003m/h.</desc>
<speed>18.660001</speed>
</trkpt>
<trkpt lat="43.092186" lon="19.105770">
<ele>1507.2</ele>
<time>2012-05-03T00:13:50Z</time>
<desc>lat.=43.092186, lon.=19.105770, Alt.=1518.266602m. Speed=68.543999m/h.</desc>
<speed>19.040000</speed>
</trkpt>
<trkpt lat="43.092770" lon="19.106659">
<ele>1505.8</ele>
<time>2012-05-03T00:13:55Z</time>
<desc>lat.=43.092770, lon.=19.106659, Alt.=1518.485352m. Speed=73.008003m/h.</desc>
<speed>20.280001</speed>
</trkpt>
<trkpt lat="43.093765" lon="19.108803">
<ele>1523.0</ele>
<time>2012-05-03T00:14:05Z</time>
<desc>lat.=43.093765, lon.=19.108803, Alt.=1523.985352m. Speed=72.863998m/h.</desc>
<speed>20.240000</speed>
</trkpt>
<trkpt lat="43.094440" lon="19.109623">
<ele>1520.6</ele>
<time>2012-05-03T00:14:10Z</time>
<desc>lat.=43.094440, lon.=19.109623, Alt.=1526.954102m. Speed=73.367996m/h.</desc>
<speed>20.379999</speed>
</trkpt>
<trkpt lat="43.095287" lon="19.110119">
<ele>1523.7</ele>
<time>2012-05-03T00:14:15Z</time>
<desc>lat.=43.095287, lon.=19.110119, Alt.=1529.360352m. Speed=72.648003m/h.</desc>
<speed>20.180001</speed>
</trkpt>
<trkpt lat="43.098949" lon="19.110630">
<ele>1520.1</ele>
<time>2012-05-03T00:14:35Z</time>
<desc>lat.=43.098949, lon.=19.110630, Alt.=1532.172852m. Speed=68.075996m/h.</desc>
<speed>18.909999</speed>
</trkpt>
<trkpt lat="43.099712" lon="19.111189">
<ele>1516.1</ele>
<time>2012-05-03T00:14:40Z</time>
<desc>lat.=43.099712, lon.=19.111189, Alt.=1529.829102m. Speed=72.431999m/h.</desc>
<speed>20.120000</speed>
</trkpt>
<trkpt lat="43.102654" lon="19.116440">
<ele>1498.6</ele>
<time>2012-05-03T00:15:05Z</time>
<desc>lat.=43.102654, lon.=19.116440, Alt.=1511.047852m. Speed=80.783997m/h.</desc>
<speed>22.439999</speed>
</trkpt>
<trkpt lat="43.103394" lon="19.117373">
<ele>1493.8</ele>
<time>2012-05-03T00:15:10Z</time>
<desc>lat.=43.103394, lon.=19.117373, Alt.=1506.110352m. Speed=80.351997m/h.</desc>
<speed>22.319999</speed>
</trkpt>
<trkpt lat="43.110756" lon="19.121902">
<ele>1471.3</ele>
<time>2012-05-03T00:15:50Z</time>
<desc>lat.=43.110756, lon.=19.121902, Alt.=1483.454102m. Speed=81.935997m/h.</desc>
<speed>22.759999</speed>
</trkpt>
<trkpt lat="43.111771" lon="19.122164">
<ele>1470.5</ele>
<time>2012-05-03T00:15:55Z</time>
<desc>lat.=43.111771, lon.=19.122164, Alt.=1481.579102m. Speed=82.800003m/h.</desc>
<speed>23.000001</speed>
</trkpt>
<trkpt lat="43.118076" lon="19.122246">
<ele>1460.7</ele>
<time>2012-05-03T00:16:25Z</time>
<desc>lat.=43.118076, lon.=19.122246, Alt.=1469.641602m. Speed=80.424004m/h.</desc>
<speed>22.340001</speed>
</trkpt>
<trkpt lat="43.119026" lon="19.122715">
<ele>1457.0</ele>
<time>2012-05-03T00:16:30Z</time>
<desc>lat.=43.119026, lon.=19.122715, Alt.=1467.172852m. Speed=83.412003m/h.</desc>
<speed>23.170001</speed>
</trkpt>
<trkpt lat="43.120766" lon="19.124405">
<ele>1456.8</ele>
<time>2012-05-03T00:16:40Z</time>
<desc>lat.=43.120766, lon.=19.124405, Alt.=1465.172852m. Speed=82.367996m/h.</desc>
<speed>22.879999</speed>
</trkpt>
<trkpt lat="43.121723" lon="19.124844">
<ele>1457.0</ele>
<time>2012-05-03T00:16:45Z</time>
<desc>lat.=43.121723, lon.=19.124844, Alt.=1464.766602m. Speed=80.820000m/h.</desc>
<speed>22.450000</speed>
</trkpt>
<trkpt lat="43.124825" lon="19.124550">
<ele>1457.9</ele>
<time>2012-05-03T00:17:00Z</time>
<desc>lat.=43.124825, lon.=19.124550, Alt.=1463.141602m. Speed=79.379997m/h.</desc>
<speed>22.049999</speed>
</trkpt>
<trkpt lat="43.127766" lon="19.125668">
<ele>1453.8</ele>
<time>2012-05-03T00:17:15Z</time>
<desc>lat.=43.127766, lon.=19.125668, Alt.=1460.454102m. Speed=79.416000m/h.</desc>
<speed>22.060000</speed>
</trkpt>
<trkpt lat="43.128723" lon="19.125805">
<ele>1450.5</ele>
<time>2012-05-03T00:17:20Z</time>
<desc>lat.=43.128723, lon.=19.125805, Alt.=1457.766602m. Speed=75.671997m/h.</desc>
<speed>21.019999</speed>
</trkpt>
<trkpt lat="43.129616" lon="19.125523">
<ele>1448.7</ele>
<time>2012-05-03T00:17:25Z</time>
<desc>lat.=43.129616, lon.=19.125523, Alt.=1455.641602m. Speed=71.424004m/h.</desc>
<speed>19.840001</speed>
</trkpt>
<trkpt lat="43.131897" lon="19.123997">
<ele>1454.9</ele>
<time>2012-05-03T00:17:40Z</time>
<desc>lat.=43.131897, lon.=19.123997, Alt.=1461.516602m. Speed=65.592003m/h.</desc>
<speed>18.220001</speed>
</trkpt>
<trkpt lat="43.138515" lon="19.121634">
<ele>1469.4</ele>
<time>2012-05-03T00:18:15Z</time>
<desc>lat.=43.138515, lon.=19.121634, Alt.=1478.891602m. Speed=83.664001m/h.</desc>
<speed>23.240000</speed>
</trkpt>
<trkpt lat="43.142216" lon="19.121180">
<ele>1484.2</ele>
<time>2012-05-03T00:18:35Z</time>
<desc>lat.=43.142216, lon.=19.121180, Alt.=1490.735352m. Speed=61.992001m/h.</desc>
<speed>17.220000</speed>
</trkpt>
<trkpt lat="43.146336" lon="19.122353">
<ele>1469.9</ele>
<time>2012-05-03T00:19:00Z</time>
<desc>lat.=43.146336, lon.=19.122353, Alt.=1478.047852m. Speed=70.344002m/h.</desc>
<speed>19.540000</speed>
</trkpt>
<trkpt lat="43.147106" lon="19.122757">
<ele>1471.1</ele>
<time>2012-05-03T00:19:05Z</time>
<desc>lat.=43.147106, lon.=19.122757, Alt.=1477.985352m. Speed=63.863998m/h.</desc>
<speed>17.740000</speed>
</trkpt>
<trkpt lat="43.150150" lon="19.125961">
<ele>1464.2</ele>
<time>2012-05-03T00:19:30Z</time>
<desc>lat.=43.150150, lon.=19.125961, Alt.=1462.360352m. Speed=51.911999m/h.</desc>
<speed>14.420000</speed>
</trkpt>
<trkpt lat="43.150780" lon="19.126986">
<ele>1446.5</ele>
<time>2012-05-03T00:19:40Z</time>
<desc>lat.=43.150780, lon.=19.126986, Alt.=1458.204102m. Speed=34.452000m/h.</desc>
<speed>9.570000</speed>
</trkpt>
<trkpt lat="43.152016" lon="19.129780">
<ele>1436.5</ele>
<time>2012-05-03T00:20:00Z</time>
<desc>lat.=43.152016, lon.=19.129780, Alt.=1446.110352m. Speed=42.768002m/h.</desc>
<speed>11.880000</speed>
</trkpt>
<trkpt lat="43.152691" lon="19.130768">
<ele>1440.1</ele>
<time>2012-05-03T00:20:10Z</time>
<desc>lat.=43.152691, lon.=19.130768, Alt.=1445.079102m. Speed=43.056000m/h.</desc>
<speed>11.960000</speed>
</trkpt>
<trkpt lat="43.153828" lon="19.131237">
<ele>1436.0</ele>
<time>2012-05-03T00:20:20Z</time>
<desc>lat.=43.153828, lon.=19.131237, Alt.=1444.047852m. Speed=50.759998m/h.</desc>
<speed>14.100000</speed>
</trkpt>
<trkpt lat="43.155128" lon="19.131327">
<ele>1433.6</ele>
<time>2012-05-03T00:20:30Z</time>
<desc>lat.=43.155128, lon.=19.131327, Alt.=1438.766602m. Speed=52.523998m/h.</desc>
<speed>14.590000</speed>
</trkpt>
<trkpt lat="43.155708" lon="19.131744">
<ele>1428.9</ele>
<time>2012-05-03T00:20:35Z</time>
<desc>lat.=43.155708, lon.=19.131744, Alt.=1435.985352m. Speed=52.848000m/h.</desc>
<speed>14.680000</speed>
</trkpt>
<trkpt lat="43.158325" lon="19.134638">
<ele>1413.8</ele>
<time>2012-05-03T00:21:00Z</time>
<desc>lat.=43.158325, lon.=19.134638, Alt.=1424.297852m. Speed=51.551998m/h.</desc>
<speed>14.319999</speed>
</trkpt>
<trkpt lat="43.160107" lon="19.135675">
<ele>1410.0</ele>
<time>2012-05-03T00:21:15Z</time>
<desc>lat.=43.160107, lon.=19.135675, Alt.=1418.829102m. Speed=45.792000m/h.</desc>
<speed>12.720000</speed>
</trkpt>
<trkpt lat="43.160778" lon="19.135775">
<ele>1406.2</ele>
<time>2012-05-03T00:21:25Z</time>
<desc>lat.=43.160778, lon.=19.135775, Alt.=1418.047852m. Speed=23.436001m/h.</desc>
<speed>6.510000</speed>
</trkpt>
<trkpt lat="43.161335" lon="19.136778">
<ele>1408.3</ele>
<time>2012-05-03T00:21:35Z</time>
<desc>lat.=43.161335, lon.=19.136778, Alt.=1417.172852m. Speed=43.164001m/h.</desc>
<speed>11.990000</speed>
</trkpt>
<trkpt lat="43.162540" lon="19.138300">
<ele>1406.5</ele>
<time>2012-05-03T00:21:50Z</time>
<desc>lat.=43.162540, lon.=19.138300, Alt.=1414.860352m. Speed=46.584000m/h.</desc>
<speed>12.940000</speed>
</trkpt>
<trkpt lat="43.163052" lon="19.139851">
<ele>1401.8</ele>
<time>2012-05-03T00:22:00Z</time>
<desc>lat.=43.163052, lon.=19.139851, Alt.=1408.954102m. Speed=52.487999m/h.</desc>
<speed>14.580000</speed>
</trkpt>
<trkpt lat="43.163136" lon="19.143835">
<ele>1381.6</ele>
<time>2012-05-03T00:22:20Z</time>
<desc>lat.=43.163136, lon.=19.143835, Alt.=1389.485352m. Speed=64.080002m/h.</desc>
<speed>17.800001</speed>
</trkpt>
<trkpt lat="43.164032" lon="19.150269">
<ele>1360.7</ele>
<time>2012-05-03T00:22:50Z</time>
<desc>lat.=43.164032, lon.=19.150269, Alt.=1371.079102m. Speed=63.827999m/h.</desc>
<speed>17.730000</speed>
</trkpt>
<trkpt lat="43.163799" lon="19.155451">
<ele>1347.5</ele>
<time>2012-05-03T00:23:15Z</time>
<desc>lat.=43.163799, lon.=19.155451, Alt.=1358.516602m. Speed=55.799999m/h.</desc>
<speed>15.500000</speed>
</trkpt>
<trkpt lat="43.164516" lon="19.159754">
<ele>1339.3</ele>
<time>2012-05-03T00:23:35Z</time>
<desc>lat.=43.164516, lon.=19.159754, Alt.=1351.579102m. Speed=68.940002m/h.</desc>
<speed>19.150001</speed>
</trkpt>
<trkpt lat="43.164822" lon="19.164223">
<ele>1334.5</ele>
<time>2012-05-03T00:23:55Z</time>
<desc>lat.=43.164822, lon.=19.164223, Alt.=1345.891602m. Speed=65.484001m/h.</desc>
<speed>18.190000</speed>
</trkpt>
<trkpt lat="43.165199" lon="19.167431">
<ele>1327.9</ele>
<time>2012-05-03T00:24:10Z</time>
<desc>lat.=43.165199, lon.=19.167431, Alt.=1340.485352m. Speed=60.911999m/h.</desc>
<speed>16.920000</speed>
</trkpt>
<trkpt lat="43.164646" lon="19.175476">
<ele>1316.4</ele>
<time>2012-05-03T00:24:50Z</time>
<desc>lat.=43.164646, lon.=19.175476, Alt.=1329.172852m. Speed=57.563999m/h.</desc>
<speed>15.990000</speed>
</trkpt>
<trkpt lat="43.165623" lon="19.182508">
<ele>1304.4</ele>
<time>2012-05-03T00:25:25Z</time>
<desc>lat.=43.165623, lon.=19.182508, Alt.=1314.985352m. Speed=54.792000m/h.</desc>
<speed>15.220000</speed>
</trkpt>
<trkpt lat="43.164150" lon="19.188618">
<ele>1313.5</ele>
<time>2012-05-03T00:26:00Z</time>
<desc>lat.=43.164150, lon.=19.188618, Alt.=1320.797852m. Speed=53.352001m/h.</desc>
<speed>14.820000</speed>
</trkpt>
<trkpt lat="43.164158" lon="19.189564">
<ele>1309.6</ele>
<time>2012-05-03T00:26:05Z</time>
<desc>lat.=43.164158, lon.=19.189564, Alt.=1317.704102m. Speed=56.195999m/h.</desc>
<speed>15.610000</speed>
</trkpt>
<trkpt lat="43.163704" lon="19.191446">
<ele>1311.2</ele>
<time>2012-05-03T00:26:15Z</time>
<desc>lat.=43.163704, lon.=19.191446, Alt.=1312.860352m. Speed=59.543999m/h.</desc>
<speed>16.540000</speed>
</trkpt>
<trkpt lat="43.162579" lon="19.198650">
<ele>1295.3</ele>
<time>2012-05-03T00:26:50Z</time>
<desc>lat.=43.162579, lon.=19.198650, Alt.=1304.641602m. Speed=58.284000m/h.</desc>
<speed>16.190000</speed>
</trkpt>
<trkpt lat="43.161579" lon="19.202650">
<ele>1289.2</ele>
<time>2012-05-03T00:27:10Z</time>
<desc>lat.=43.161579, lon.=19.202650, Alt.=1302.172852m. Speed=65.916000m/h.</desc>
<speed>18.310000</speed>
</trkpt>
<trkpt lat="43.159622" lon="19.207409">
<ele>1290.5</ele>
<time>2012-05-03T00:27:35Z</time>
<desc>lat.=43.159622, lon.=19.207409, Alt.=1303.266602m. Speed=61.091999m/h.</desc>
<speed>16.970000</speed>
</trkpt>
<trkpt lat="43.159073" lon="19.209360">
<ele>1290.2</ele>
<time>2012-05-03T00:27:45Z</time>
<desc>lat.=43.159073, lon.=19.209360, Alt.=1302.610352m. Speed=58.716000m/h.</desc>
<speed>16.310000</speed>
</trkpt>
<trkpt lat="43.158688" lon="19.210194">
<ele>1285.5</ele>
<time>2012-05-03T00:27:50Z</time>
<desc>lat.=43.158688, lon.=19.210194, Alt.=1300.922852m. Speed=59.363998m/h.</desc>
<speed>16.490000</speed>
</trkpt>
<trkpt lat="43.157661" lon="19.211641">
<ele>1291.4</ele>
<time>2012-05-03T00:28:00Z</time>
<desc>lat.=43.157661, lon.=19.211641, Alt.=1302.829102m. Speed=50.580002m/h.</desc>
<speed>14.050001</speed>
</trkpt>
<trkpt lat="43.154026" lon="19.213219">
<ele>1310.3</ele>
<time>2012-05-03T00:28:30Z</time>
<desc>lat.=43.154026, lon.=19.213219, Alt.=1324.704102m. Speed=59.903999m/h.</desc>
<speed>16.640000</speed>
</trkpt>
<trkpt lat="43.152718" lon="19.215450">
<ele>1301.1</ele>
<time>2012-05-03T00:28:45Z</time>
<desc>lat.=43.152718, lon.=19.215450, Alt.=1317.797852m. Speed=55.584000m/h.</desc>
<speed>15.440000</speed>
</trkpt>
<trkpt lat="43.150852" lon="19.216801">
<ele>1297.9</ele>
<time>2012-05-03T00:29:00Z</time>
<desc>lat.=43.150852, lon.=19.216801, Alt.=1312.766602m. Speed=53.495998m/h.</desc>
<speed>14.860000</speed>
</trkpt>
<trkpt lat="43.148949" lon="19.219612">
<ele>1297.2</ele>
<time>2012-05-03T00:29:20Z</time>
<desc>lat.=43.148949, lon.=19.219612, Alt.=1310.235352m. Speed=57.096001m/h.</desc>
<speed>15.860000</speed>
</trkpt>
<trkpt lat="43.147675" lon="19.220459">
<ele>1297.9</ele>
<time>2012-05-03T00:29:30Z</time>
<desc>lat.=43.147675, lon.=19.220459, Alt.=1313.047852m. Speed=54.756001m/h.</desc>
<speed>15.210000</speed>
</trkpt>
<trkpt lat="43.146507" lon="19.222738">
<ele>1302.6</ele>
<time>2012-05-03T00:29:45Z</time>
<desc>lat.=43.146507, lon.=19.222738, Alt.=1316.235352m. Speed=52.091999m/h.</desc>
<speed>14.470000</speed>
</trkpt>
<trkpt lat="43.145329" lon="19.223671">
<ele>1303.9</ele>
<time>2012-05-03T00:29:55Z</time>
<desc>lat.=43.145329, lon.=19.223671, Alt.=1320.235352m. Speed=56.952000m/h.</desc>
<speed>15.820000</speed>
</trkpt>
<trkpt lat="43.144165" lon="19.225042">
<ele>1299.6</ele>
<time>2012-05-03T00:30:05Z</time>
<desc>lat.=43.144165, lon.=19.225042, Alt.=1315.422852m. Speed=64.295998m/h.</desc>
<speed>17.859999</speed>
</trkpt>
<trkpt lat="43.143631" lon="19.225828">
<ele>1298.1</ele>
<time>2012-05-03T00:30:10Z</time>
<desc>lat.=43.143631, lon.=19.225828, Alt.=1313.422852m. Speed=61.307999m/h.</desc>
<speed>17.030000</speed>
</trkpt>
<trkpt lat="43.143307" lon="19.226782">
<ele>1296.6</ele>
<time>2012-05-03T00:30:15Z</time>
<desc>lat.=43.143307, lon.=19.226782, Alt.=1313.610352m. Speed=62.352001m/h.</desc>
<speed>17.320000</speed>
</trkpt>
<trkpt lat="43.143227" lon="19.227867">
<ele>1297.8</ele>
<time>2012-05-03T00:30:20Z</time>
<desc>lat.=43.143227, lon.=19.227867, Alt.=1312.204102m. Speed=64.620003m/h.</desc>
<speed>17.950001</speed>
</trkpt>
<trkpt lat="43.144268" lon="19.232119">
<ele>1301.0</ele>
<time>2012-05-03T00:30:40Z</time>
<desc>lat.=43.144268, lon.=19.232119, Alt.=1313.610352m. Speed=57.383999m/h.</desc>
<speed>15.940000</speed>
</trkpt>
<trkpt lat="43.144897" lon="19.233725">
<ele>1305.3</ele>
<time>2012-05-03T00:30:50Z</time>
<desc>lat.=43.144897, lon.=19.233725, Alt.=1318.297852m. Speed=53.208000m/h.</desc>
<speed>14.780000</speed>
</trkpt>
<trkpt lat="43.145458" lon="19.234240">
<ele>1308.0</ele>
<time>2012-05-03T00:30:55Z</time>
<desc>lat.=43.145458, lon.=19.234240, Alt.=1322.829102m. Speed=55.188000m/h.</desc>
<speed>15.330000</speed>
</trkpt>
<trkpt lat="43.147438" lon="19.235281">
<ele>1326.8</ele>
<time>2012-05-03T00:31:10Z</time>
<desc>lat.=43.147438, lon.=19.235281, Alt.=1335.454102m. Speed=53.748001m/h.</desc>
<speed>14.930000</speed>
</trkpt>
<trkpt lat="43.147995" lon="19.235725">
<ele>1329.3</ele>
<time>2012-05-03T00:31:15Z</time>
<desc>lat.=43.147995, lon.=19.235725, Alt.=1338.766602m. Speed=52.344002m/h.</desc>
<speed>14.540000</speed>
</trkpt>
<trkpt lat="43.148357" lon="19.236452">
<ele>1334.7</ele>
<time>2012-05-03T00:31:20Z</time>
<desc>lat.=43.148357, lon.=19.236452, Alt.=1341.016602m. Speed=50.400002m/h.</desc>
<speed>14.000000</speed>
</trkpt>
<trkpt lat="43.148422" lon="19.237303">
<ele>1332.9</ele>
<time>2012-05-03T00:31:25Z</time>
<desc>lat.=43.148422, lon.=19.237303, Alt.=1342.079102m. Speed=50.868000m/h.</desc>
<speed>14.130000</speed>
</trkpt>
<trkpt lat="43.148033" lon="19.239050">
<ele>1335.0</ele>
<time>2012-05-03T00:31:35Z</time>
<desc>lat.=43.148033, lon.=19.239050, Alt.=1343.391602m. Speed=52.596001m/h.</desc>
<speed>14.610000</speed>
</trkpt>
<trkpt lat="43.148003" lon="19.239954">
<ele>1351.1</ele>
<time>2012-05-03T00:31:40Z</time>
<desc>lat.=43.148003, lon.=19.239954, Alt.=1343.797852m. Speed=54.936001m/h.</desc>
<speed>15.260000</speed>
</trkpt>
<trkpt lat="43.148300" lon="19.241768">
<ele>1356.6</ele>
<time>2012-05-03T00:31:50Z</time>
<desc>lat.=43.148300, lon.=19.241768, Alt.=1344.547852m. Speed=57.383999m/h.</desc>
<speed>15.940000</speed>
</trkpt>
<trkpt lat="43.148300" lon="19.243700">
<ele>1352.9</ele>
<time>2012-05-03T00:32:00Z</time>
<desc>lat.=43.148300, lon.=19.243700, Alt.=1343.329102m. Speed=52.344002m/h.</desc>
<speed>14.540000</speed>
</trkpt>
<trkpt lat="43.147770" lon="19.245253">
<ele>1340.1</ele>
<time>2012-05-03T00:32:10Z</time>
<desc>lat.=43.147770, lon.=19.245253, Alt.=1344.204102m. Speed=51.731998m/h.</desc>
<speed>14.370000</speed>
</trkpt>
<trkpt lat="43.147652" lon="19.246941">
<ele>1334.2</ele>
<time>2012-05-03T00:32:20Z</time>
<desc>lat.=43.147652, lon.=19.246941, Alt.=1344.516602m. Speed=48.852001m/h.</desc>
<speed>13.570000</speed>
</trkpt>
<trkpt lat="43.147892" lon="19.247747">
<ele>1337.6</ele>
<time>2012-05-03T00:32:25Z</time>
<desc>lat.=43.147892, lon.=19.247747, Alt.=1344.172852m. Speed=52.200001m/h.</desc>
<speed>14.500000</speed>
</trkpt>
<trkpt lat="43.148315" lon="19.248417">
<ele>1335.2</ele>
<time>2012-05-03T00:32:30Z</time>
<desc>lat.=43.148315, lon.=19.248417, Alt.=1345.172852m. Speed=54.180000m/h.</desc>
<speed>15.050000</speed>
</trkpt>
<trkpt lat="43.150089" lon="19.249937">
<ele>1342.6</ele>
<time>2012-05-03T00:32:45Z</time>
<desc>lat.=43.150089, lon.=19.249937, Alt.=1347.454102m. Speed=53.639999m/h.</desc>
<speed>14.900000</speed>
</trkpt>
<trkpt lat="43.150356" lon="19.250771">
<ele>1341.1</ele>
<time>2012-05-03T00:32:50Z</time>
<desc>lat.=43.150356, lon.=19.250771, Alt.=1348.360352m. Speed=53.352001m/h.</desc>
<speed>14.820000</speed>
</trkpt>
<trkpt lat="43.150154" lon="19.252480">
<ele>1342.7</ele>
<time>2012-05-03T00:33:00Z</time>
<desc>lat.=43.150154, lon.=19.252480, Alt.=1348.704102m. Speed=45.324001m/h.</desc>
<speed>12.590000</speed>
</trkpt>
<trkpt lat="43.150238" lon="19.253214">
<ele>1336.0</ele>
<time>2012-05-03T00:33:05Z</time>
<desc>lat.=43.150238, lon.=19.253214, Alt.=1345.579102m. Speed=43.667999m/h.</desc>
<speed>12.130000</speed>
</trkpt>
<trkpt lat="43.150845" lon="19.254440">
<ele>1320.9</ele>
<time>2012-05-03T00:33:15Z</time>
<desc>lat.=43.150845, lon.=19.254440, Alt.=1337.360352m. Speed=39.203999m/h.</desc>
<speed>10.890000</speed>
</trkpt>
<trkpt lat="43.150829" lon="19.255693">
<ele>1308.8</ele>
<time>2012-05-03T00:33:25Z</time>
<desc>lat.=43.150829, lon.=19.255693, Alt.=1331.422852m. Speed=36.180000m/h.</desc>
<speed>10.050000</speed>
</trkpt>
<trkpt lat="43.151058" lon="19.256203">
<ele>1308.6</ele>
<time>2012-05-03T00:33:30Z</time>
<desc>lat.=43.151058, lon.=19.256203, Alt.=1327.391602m. Speed=35.208000m/h.</desc>
<speed>9.780000</speed>
</trkpt>
<trkpt lat="43.151791" lon="19.256840">
<ele>1307.0</ele>
<time>2012-05-03T00:33:40Z</time>
<desc>lat.=43.151791, lon.=19.256840, Alt.=1319.985352m. Speed=34.776001m/h.</desc>
<speed>9.660000</speed>
</trkpt>
<trkpt lat="43.152191" lon="19.257874">
<ele>1293.3</ele>
<time>2012-05-03T00:33:50Z</time>
<desc>lat.=43.152191, lon.=19.257874, Alt.=1312.172852m. Speed=34.271999m/h.</desc>
<speed>9.520000</speed>
</trkpt>
<trkpt lat="43.152447" lon="19.258318">
<ele>1293.0</ele>
<time>2012-05-03T00:33:55Z</time>
<desc>lat.=43.152447, lon.=19.258318, Alt.=1309.735352m. Speed=34.307999m/h.</desc>
<speed>9.530000</speed>
</trkpt>
<trkpt lat="43.152782" lon="19.258530">
<ele>1291.8</ele>
<time>2012-05-03T00:34:00Z</time>
<desc>lat.=43.152782, lon.=19.258530, Alt.=1306.704102m. Speed=22.104000m/h.</desc>
<speed>6.140000</speed>
</trkpt>
<trkpt lat="43.152847" lon="19.258820">
<ele>1287.6</ele>
<time>2012-05-03T00:34:05Z</time>
<desc>lat.=43.152847, lon.=19.258820, Alt.=1304.141602m. Speed=19.944000m/h.</desc>
<speed>5.540000</speed>
</trkpt>
<trkpt lat="43.152256" lon="19.258684">
<ele>1284.8</ele>
<time>2012-05-03T00:34:15Z</time>
<desc>lat.=43.152256, lon.=19.258684, Alt.=1299.172852m. Speed=31.608000m/h.</desc>
<speed>8.780000</speed>
</trkpt>
<trkpt lat="43.151596" lon="19.257860">
<ele>1276.5</ele>
<time>2012-05-03T00:34:25Z</time>
<desc>lat.=43.151596, lon.=19.257860, Alt.=1292.110352m. Speed=42.444000m/h.</desc>
<speed>11.790000</speed>
</trkpt>
<trkpt lat="43.150150" lon="19.256693">
<ele>1266.5</ele>
<time>2012-05-03T00:34:40Z</time>
<desc>lat.=43.150150, lon.=19.256693, Alt.=1282.797852m. Speed=30.455999m/h.</desc>
<speed>8.460000</speed>
</trkpt>
<trkpt lat="43.149929" lon="19.256769">
<ele>1277.4</ele>
<time>2012-05-03T00:34:45Z</time>
<desc>lat.=43.149929, lon.=19.256769, Alt.=1279.954102m. Speed=21.420000m/h.</desc>
<speed>5.950000</speed>
</trkpt>
<trkpt lat="43.151291" lon="19.258671">
<ele>1243.3</ele>
<time>2012-05-03T00:35:05Z</time>
<desc>lat.=43.151291, lon.=19.258671, Alt.=1267.016602m. Speed=46.872002m/h.</desc>
<speed>13.020000</speed>
</trkpt>
<trkpt lat="43.151821" lon="19.260105">
<ele>1245.7</ele>
<time>2012-05-03T00:35:15Z</time>
<desc>lat.=43.151821, lon.=19.260105, Alt.=1260.735352m. Speed=48.636002m/h.</desc>
<speed>13.510000</speed>
</trkpt>
<trkpt lat="43.153599" lon="19.262016">
<ele>1240.6</ele>
<time>2012-05-03T00:35:35Z</time>
<desc>lat.=43.153599, lon.=19.262016, Alt.=1246.141602m. Speed=32.292000m/h.</desc>
<speed>8.970000</speed>
</trkpt>
<trkpt lat="43.153526" lon="19.262548">
<ele>1233.0</ele>
<time>2012-05-03T00:35:40Z</time>
<desc>lat.=43.153526, lon.=19.262548, Alt.=1243.954102m. Speed=33.444000m/h.</desc>
<speed>9.290000</speed>
</trkpt>
<trkpt lat="43.153168" lon="19.262894">
<ele>1231.7</ele>
<time>2012-05-03T00:35:45Z</time>
<desc>lat.=43.153168, lon.=19.262894, Alt.=1241.141602m. Speed=32.723999m/h.</desc>
<speed>9.090000</speed>
</trkpt>
<trkpt lat="43.152699" lon="19.262871">
<ele>1225.6</ele>
<time>2012-05-03T00:35:50Z</time>
<desc>lat.=43.152699, lon.=19.262871, Alt.=1237.766602m. Speed=40.355999m/h.</desc>
<speed>11.210000</speed>
</trkpt>
<trkpt lat="43.151436" lon="19.261562">
<ele>1206.1</ele>
<time>2012-05-03T00:36:05Z</time>
<desc>lat.=43.151436, lon.=19.261562, Alt.=1227.547852m. Speed=44.208000m/h.</desc>
<speed>12.280000</speed>
</trkpt>
<trkpt lat="43.150894" lon="19.261379">
<ele>1207.4</ele>
<time>2012-05-03T00:36:10Z</time>
<desc>lat.=43.150894, lon.=19.261379, Alt.=1224.110352m. Speed=45.576000m/h.</desc>
<speed>12.660000</speed>
</trkpt>
<trkpt lat="43.150433" lon="19.261786">
<ele>1203.1</ele>
<time>2012-05-03T00:36:15Z</time>
<desc>lat.=43.150433, lon.=19.261786, Alt.=1220.297852m. Speed=46.007999m/h.</desc>
<speed>12.780000</speed>
</trkpt>
<trkpt lat="43.150669" lon="19.263365">
<ele>1199.9</ele>
<time>2012-05-03T00:36:25Z</time>
<desc>lat.=43.150669, lon.=19.263365, Alt.=1211.454102m. Speed=49.391998m/h.</desc>
<speed>13.720000</speed>
</trkpt>
<trkpt lat="43.150635" lon="19.264214">
<ele>1192.2</ele>
<time>2012-05-03T00:36:30Z</time>
<desc>lat.=43.150635, lon.=19.264214, Alt.=1208.047852m. Speed=50.832001m/h.</desc>
<speed>14.120000</speed>
</trkpt>
<trkpt lat="43.150154" lon="19.265835">
<ele>1187.4</ele>
<time>2012-05-03T00:36:40Z</time>
<desc>lat.=43.150154, lon.=19.265835, Alt.=1201.485352m. Speed=52.236000m/h.</desc>
<speed>14.510000</speed>
</trkpt>
<trkpt lat="43.149849" lon="19.267529">
<ele>1175.8</ele>
<time>2012-05-03T00:36:50Z</time>
<desc>lat.=43.149849, lon.=19.267529, Alt.=1196.610352m. Speed=46.692001m/h.</desc>
<speed>12.970000</speed>
</trkpt>
<trkpt lat="43.149006" lon="19.268667">
<ele>1164.9</ele>
<time>2012-05-03T00:37:00Z</time>
<desc>lat.=43.149006, lon.=19.268667, Alt.=1189.579102m. Speed=43.919998m/h.</desc>
<speed>12.199999</speed>
</trkpt>
<trkpt lat="43.148495" lon="19.268661">
<ele>1156.0</ele>
<time>2012-05-03T00:37:05Z</time>
<desc>lat.=43.148495, lon.=19.268661, Alt.=1184.891602m. Speed=45.216000m/h.</desc>
<speed>12.560000</speed>
</trkpt>
<trkpt lat="43.148163" lon="19.268124">
<ele>1159.0</ele>
<time>2012-05-03T00:37:10Z</time>
<desc>lat.=43.148163, lon.=19.268124, Alt.=1181.829102m. Speed=37.152000m/h.</desc>
<speed>10.320000</speed>
</trkpt>
<trkpt lat="43.147888" lon="19.268000">
<ele>1158.5</ele>
<time>2012-05-03T00:37:15Z</time>
<desc>lat.=43.147888, lon.=19.268000, Alt.=1177.954102m. Speed=24.299999m/h.</desc>
<speed>6.750000</speed>
</trkpt>
<trkpt lat="43.147930" lon="19.268324">
<ele>1152.9</ele>
<time>2012-05-03T00:37:20Z</time>
<desc>lat.=43.147930, lon.=19.268324, Alt.=1174.141602m. Speed=23.436001m/h.</desc>
<speed>6.510000</speed>
</trkpt>
<trkpt lat="43.148590" lon="19.269129">
<ele>1147.0</ele>
<time>2012-05-03T00:37:30Z</time>
<desc>lat.=43.148590, lon.=19.269129, Alt.=1169.016602m. Speed=40.751999m/h.</desc>
<speed>11.320000</speed>
</trkpt>
<trkpt lat="43.149082" lon="19.269255">
<ele>1151.3</ele>
<time>2012-05-03T00:37:35Z</time>
<desc>lat.=43.149082, lon.=19.269255, Alt.=1165.704102m. Speed=41.832001m/h.</desc>
<speed>11.620000</speed>
</trkpt>
<trkpt lat="43.149582" lon="19.269005">
<ele>1147.7</ele>
<time>2012-05-03T00:37:40Z</time>
<desc>lat.=43.149582, lon.=19.269005, Alt.=1161.547852m. Speed=43.632000m/h.</desc>
<speed>12.120000</speed>
</trkpt>
<trkpt lat="43.150021" lon="19.268553">
<ele>1145.9</ele>
<time>2012-05-03T00:37:45Z</time>
<desc>lat.=43.150021, lon.=19.268553, Alt.=1156.829102m. Speed=44.928001m/h.</desc>
<speed>12.480000</speed>
</trkpt>
<trkpt lat="43.151039" lon="19.266647">
<ele>1139.5</ele>
<time>2012-05-03T00:38:00Z</time>
<desc>lat.=43.151039, lon.=19.266647, Alt.=1147.422852m. Speed=46.223999m/h.</desc>
<speed>12.840000</speed>
</trkpt>
<trkpt lat="43.151524" lon="19.266220">
<ele>1136.0</ele>
<time>2012-05-03T00:38:05Z</time>
<desc>lat.=43.151524, lon.=19.266220, Alt.=1144.297852m. Speed=42.911999m/h.</desc>
<speed>11.920000</speed>
</trkpt>
<trkpt lat="43.151993" lon="19.266134">
<ele>1128.7</ele>
<time>2012-05-03T00:38:10Z</time>
<desc>lat.=43.151993, lon.=19.266134, Alt.=1141.547852m. Speed=37.403999m/h.</desc>
<speed>10.390000</speed>
</trkpt>
<trkpt lat="43.153137" lon="19.266361">
<ele>1121.7</ele>
<time>2012-05-03T00:38:20Z</time>
<desc>lat.=43.153137, lon.=19.266361, Alt.=1134.641602m. Speed=47.195999m/h.</desc>
<speed>13.110000</speed>
</trkpt>
<trkpt lat="43.153717" lon="19.266197">
<ele>1119.4</ele>
<time>2012-05-03T00:38:25Z</time>
<desc>lat.=43.153717, lon.=19.266197, Alt.=1129.579102m. Speed=49.212002m/h.</desc>
<speed>13.670001</speed>
</trkpt>
<trkpt lat="43.154888" lon="19.265480">
<ele>1113.3</ele>
<time>2012-05-03T00:38:35Z</time>
<desc>lat.=43.154888, lon.=19.265480, Alt.=1124.172852m. Speed=51.768002m/h.</desc>
<speed>14.380000</speed>
</trkpt>
<trkpt lat="43.155880" lon="19.264387">
<ele>1107.9</ele>
<time>2012-05-03T00:38:45Z</time>
<desc>lat.=43.155880, lon.=19.264387, Alt.=1115.735352m. Speed=54.360001m/h.</desc>
<speed>15.100000</speed>
</trkpt>
<trkpt lat="43.156487" lon="19.264019">
<ele>1102.1</ele>
<time>2012-05-03T00:38:50Z</time>
<desc>lat.=43.156487, lon.=19.264019, Alt.=1112.672852m. Speed=45.251999m/h.</desc>
<speed>12.570000</speed>
</trkpt>
<trkpt lat="43.156849" lon="19.263441">
<ele>1104.7</ele>
<time>2012-05-03T00:38:55Z</time>
<desc>lat.=43.156849, lon.=19.263441, Alt.=1110.829102m. Speed=43.487999m/h.</desc>
<speed>12.080000</speed>
</trkpt>
<trkpt lat="43.158298" lon="19.262375">
<ele>1086.2</ele>
<time>2012-05-03T00:39:10Z</time>
<desc>lat.=43.158298, lon.=19.262375, Alt.=1099.985352m. Speed=44.784000m/h.</desc>
<speed>12.440000</speed>
</trkpt>
<trkpt lat="43.158821" lon="19.262108">
<ele>1084.2</ele>
<time>2012-05-03T00:39:15Z</time>
<desc>lat.=43.158821, lon.=19.262108, Alt.=1097.266602m. Speed=44.748001m/h.</desc>
<speed>12.430000</speed>
</trkpt>
<trkpt lat="43.159920" lon="19.262026">
<ele>1070.6</ele>
<time>2012-05-03T00:39:25Z</time>
<desc>lat.=43.159920, lon.=19.262026, Alt.=1088.922852m. Speed=38.448002m/h.</desc>
<speed>10.680001</speed>
</trkpt>
<trkpt lat="43.160629" lon="19.261597">
<ele>1068.8</ele>
<time>2012-05-03T00:39:35Z</time>
<desc>lat.=43.160629, lon.=19.261597, Alt.=1081.579102m. Speed=18.143999m/h.</desc>
<speed>5.040000</speed>
</trkpt>
<trkpt lat="43.160591" lon="19.261892">
<ele>1062.5</ele>
<time>2012-05-03T00:39:40Z</time>
<desc>lat.=43.160591, lon.=19.261892, Alt.=1078.579102m. Speed=21.636000m/h.</desc>
<speed>6.010000</speed>
</trkpt>
<trkpt lat="43.159134" lon="19.262949">
<ele>1058.4</ele>
<time>2012-05-03T00:39:55Z</time>
<desc>lat.=43.159134, lon.=19.262949, Alt.=1068.047852m. Speed=52.236000m/h.</desc>
<speed>14.510000</speed>
</trkpt>
<trkpt lat="43.158409" lon="19.264376">
<ele>1043.5</ele>
<time>2012-05-03T00:40:05Z</time>
<desc>lat.=43.158409, lon.=19.264376, Alt.=1059.610352m. Speed=44.172001m/h.</desc>
<speed>12.270000</speed>
</trkpt>
<trkpt lat="43.158516" lon="19.265976">
<ele>1034.5</ele>
<time>2012-05-03T00:40:15Z</time>
<desc>lat.=43.158516, lon.=19.265976, Alt.=1053.735352m. Speed=49.139999m/h.</desc>
<speed>13.650000</speed>
</trkpt>
<trkpt lat="43.158344" lon="19.266800">
<ele>1031.9</ele>
<time>2012-05-03T00:40:20Z</time>
<desc>lat.=43.158344, lon.=19.266800, Alt.=1048.141602m. Speed=45.360001m/h.</desc>
<speed>12.600000</speed>
</trkpt>
<trkpt lat="43.157764" lon="19.268221">
<ele>1020.5</ele>
<time>2012-05-03T00:40:30Z</time>
<desc>lat.=43.157764, lon.=19.268221, Alt.=1039.891602m. Speed=43.992001m/h.</desc>
<speed>12.220000</speed>
</trkpt>
<trkpt lat="43.154514" lon="19.271664">
<ele>988.3</ele>
<time>2012-05-03T00:41:00Z</time>
<desc>lat.=43.154514, lon.=19.271664, Alt.=1011.164551m. Speed=60.119999m/h.</desc>
<speed>16.700000</speed>
</trkpt>
<trkpt lat="43.153885" lon="19.272104">
<ele>984.3</ele>
<time>2012-05-03T00:41:05Z</time>
<desc>lat.=43.153885, lon.=19.272104, Alt.=1005.352051m. Speed=51.299999m/h.</desc>
<speed>14.250000</speed>
</trkpt>
<trkpt lat="43.152237" lon="19.272610">
<ele>977.2</ele>
<time>2012-05-03T00:41:20Z</time>
<desc>lat.=43.152237, lon.=19.272610, Alt.=992.945801m. Speed=39.240002m/h.</desc>
<speed>10.900000</speed>
</trkpt>
<trkpt lat="43.151459" lon="19.273796">
<ele>981.6</ele>
<time>2012-05-03T00:41:30Z</time>
<desc>lat.=43.151459, lon.=19.273796, Alt.=984.727051m. Speed=51.804001m/h.</desc>
<speed>14.390000</speed>
</trkpt>
<trkpt lat="43.150917" lon="19.275152">
<ele>970.8</ele>
<time>2012-05-03T00:41:40Z</time>
<desc>lat.=43.150917, lon.=19.275152, Alt.=977.117676m. Speed=38.916000m/h.</desc>
<speed>10.810000</speed>
</trkpt>
<trkpt lat="43.150524" lon="19.275646">
<ele>966.2</ele>
<time>2012-05-03T00:41:45Z</time>
<desc>lat.=43.150524, lon.=19.275646, Alt.=973.914551m. Speed=44.063999m/h.</desc>
<speed>12.240000</speed>
</trkpt>
<trkpt lat="43.149994" lon="19.277956">
<ele>960.4</ele>
<time>2012-05-03T00:42:00Z</time>
<desc>lat.=43.149994, lon.=19.277956, Alt.=964.023926m. Speed=49.428001m/h.</desc>
<speed>13.730000</speed>
</trkpt>
<trkpt lat="43.150078" lon="19.279615">
<ele>958.0</ele>
<time>2012-05-03T00:42:10Z</time>
<desc>lat.=43.150078, lon.=19.279615, Alt.=955.148926m. Speed=45.360001m/h.</desc>
<speed>12.600000</speed>
</trkpt>
<trkpt lat="43.150528" lon="19.281973">
<ele>939.6</ele>
<time>2012-05-03T00:42:25Z</time>
<desc>lat.=43.150528, lon.=19.281973, Alt.=940.383301m. Speed=49.139999m/h.</desc>
<speed>13.650000</speed>
</trkpt>
<trkpt lat="43.150188" lon="19.284534">
<ele>931.8</ele>
<time>2012-05-03T00:42:40Z</time>
<desc>lat.=43.150188, lon.=19.284534, Alt.=928.367676m. Speed=50.363998m/h.</desc>
<speed>13.990000</speed>
</trkpt>
<trkpt lat="43.150604" lon="19.287434">
<ele>896.9</ele>
<time>2012-05-03T00:43:00Z</time>
<desc>lat.=43.150604, lon.=19.287434, Alt.=906.398926m. Speed=25.344000m/h.</desc>
<speed>7.040000</speed>
</trkpt>
<trkpt lat="43.150730" lon="19.287146">
<ele>896.5</ele>
<time>2012-05-03T00:43:05Z</time>
<desc>lat.=43.150730, lon.=19.287146, Alt.=904.023926m. Speed=26.280001m/h.</desc>
<speed>7.300000</speed>
</trkpt>
<trkpt lat="43.150513" lon="19.286091">
<ele>902.6</ele>
<time>2012-05-03T00:43:15Z</time>
<desc>lat.=43.150513, lon.=19.286091, Alt.=899.898926m. Speed=36.936001m/h.</desc>
<speed>10.260000</speed>
</trkpt>
<trkpt lat="43.150524" lon="19.284756">
<ele>898.1</ele>
<time>2012-05-03T00:43:25Z</time>
<desc>lat.=43.150524, lon.=19.284756, Alt.=892.539551m. Speed=41.976002m/h.</desc>
<speed>11.660000</speed>
</trkpt>
<trkpt lat="43.150852" lon="19.283318">
<ele>890.6</ele>
<time>2012-05-03T00:43:35Z</time>
<desc>lat.=43.150852, lon.=19.283318, Alt.=887.508301m. Speed=44.352001m/h.</desc>
<speed>12.320000</speed>
</trkpt>
<trkpt lat="43.151154" lon="19.282696">
<ele>883.6</ele>
<time>2012-05-03T00:43:40Z</time>
<desc>lat.=43.151154, lon.=19.282696, Alt.=884.977051m. Speed=40.860001m/h.</desc>
<speed>11.350000</speed>
</trkpt>
<trkpt lat="43.151314" lon="19.279699">
<ele>875.1</ele>
<time>2012-05-03T00:44:00Z</time>
<desc>lat.=43.151314, lon.=19.279699, Alt.=872.992676m. Speed=48.276001m/h.</desc>
<speed>13.410000</speed>
</trkpt>
<trkpt lat="43.151566" lon="19.278114">
<ele>866.7</ele>
<time>2012-05-03T00:44:10Z</time>
<desc>lat.=43.151566, lon.=19.278114, Alt.=867.055176m. Speed=38.448002m/h.</desc>
<speed>10.680001</speed>
</trkpt>
<trkpt lat="43.152031" lon="19.277241">
<ele>848.9</ele>
<time>2012-05-03T00:44:20Z</time>
<desc>lat.=43.152031, lon.=19.277241, Alt.=863.164551m. Speed=23.076000m/h.</desc>
<speed>6.410000</speed>
</trkpt>
<trkpt lat="43.152191" lon="19.277365">
<ele>839.7</ele>
<time>2012-05-03T00:44:25Z</time>
<desc>lat.=43.152191, lon.=19.277365, Alt.=858.492676m. Speed=21.959999m/h.</desc>
<speed>6.100000</speed>
</trkpt>
<trkpt lat="43.151695" lon="19.278030">
<ele>853.8</ele>
<time>2012-05-03T00:44:35Z</time>
<desc>lat.=43.151695, lon.=19.278030, Alt.=852.758301m. Speed=38.700001m/h.</desc>
<speed>10.750000</speed>
</trkpt>
<trkpt lat="43.151485" lon="19.280264">
<ele>854.9</ele>
<time>2012-05-03T00:44:50Z</time>
<desc>lat.=43.151485, lon.=19.280264, Alt.=844.945801m. Speed=41.543999m/h.</desc>
<speed>11.540000</speed>
</trkpt>
<trkpt lat="43.151474" lon="19.281012">
<ele>856.8</ele>
<time>2012-05-03T00:44:55Z</time>
<desc>lat.=43.151474, lon.=19.281012, Alt.=843.211426m. Speed=45.071999m/h.</desc>
<speed>12.520000</speed>
</trkpt>
<trkpt lat="43.151760" lon="19.282534">
<ele>848.1</ele>
<time>2012-05-03T00:45:05Z</time>
<desc>lat.=43.151760, lon.=19.282534, Alt.=836.461426m. Speed=41.652000m/h.</desc>
<speed>11.570000</speed>
</trkpt>
<trkpt lat="43.151604" lon="19.283173">
<ele>844.0</ele>
<time>2012-05-03T00:45:10Z</time>
<desc>lat.=43.151604, lon.=19.283173, Alt.=834.211426m. Speed=38.880001m/h.</desc>
<speed>10.800000</speed>
</trkpt>
<trkpt lat="43.151600" lon="19.284533">
<ele>831.7</ele>
<time>2012-05-03T00:45:20Z</time>
<desc>lat.=43.151600, lon.=19.284533, Alt.=830.633301m. Speed=41.363998m/h.</desc>
<speed>11.490000</speed>
</trkpt>
<trkpt lat="43.151409" lon="19.285225">
<ele>832.9</ele>
<time>2012-05-03T00:45:25Z</time>
<desc>lat.=43.151409, lon.=19.285225, Alt.=826.977051m. Speed=43.848000m/h.</desc>
<speed>12.180000</speed>
</trkpt>
<trkpt lat="43.151485" lon="19.285950">
<ele>831.0</ele>
<time>2012-05-03T00:45:30Z</time>
<desc>lat.=43.151485, lon.=19.285950, Alt.=823.633301m. Speed=44.495998m/h.</desc>
<speed>12.360000</speed>
</trkpt>
<trkpt lat="43.151955" lon="19.287319">
<ele>820.1</ele>
<time>2012-05-03T00:45:40Z</time>
<desc>lat.=43.151955, lon.=19.287319, Alt.=816.445801m. Speed=42.840000m/h.</desc>
<speed>11.900000</speed>
</trkpt>
<trkpt lat="43.151958" lon="19.287985">
<ele>813.1</ele>
<time>2012-05-03T00:45:45Z</time>
<desc>lat.=43.151958, lon.=19.287985, Alt.=812.227051m. Speed=37.188000m/h.</desc>
<speed>10.330000</speed>
</trkpt>
<trkpt lat="43.151310" lon="19.289139">
<ele>802.0</ele>
<time>2012-05-03T00:45:55Z</time>
<desc>lat.=43.151310, lon.=19.289139, Alt.=805.242676m. Speed=44.243999m/h.</desc>
<speed>12.290000</speed>
</trkpt>
<trkpt lat="43.150871" lon="19.289564">
<ele>792.3</ele>
<time>2012-05-03T00:46:00Z</time>
<desc>lat.=43.150871, lon.=19.289564, Alt.=802.586426m. Speed=44.099998m/h.</desc>
<speed>12.250000</speed>
</trkpt>
<trkpt lat="43.149246" lon="19.289474">
<ele>784.6</ele>
<time>2012-05-03T00:46:15Z</time>
<desc>lat.=43.149246, lon.=19.289474, Alt.=794.648926m. Speed=41.543999m/h.</desc>
<speed>11.540000</speed>
</trkpt>
<trkpt lat="43.148907" lon="19.289921">
<ele>784.2</ele>
<time>2012-05-03T00:46:20Z</time>
<desc>lat.=43.148907, lon.=19.289921, Alt.=791.430176m. Speed=41.436001m/h.</desc>
<speed>11.510000</speed>
</trkpt>
<trkpt lat="43.148548" lon="19.291862">
<ele>773.4</ele>
<time>2012-05-03T00:46:35Z</time>
<desc>lat.=43.148548, lon.=19.291862, Alt.=782.398926m. Speed=29.664000m/h.</desc>
<speed>8.240000</speed>
</trkpt>
<trkpt lat="43.148624" lon="19.292381">
<ele>763.6</ele>
<time>2012-05-03T00:46:40Z</time>
<desc>lat.=43.148624, lon.=19.292381, Alt.=779.383301m. Speed=35.891998m/h.</desc>
<speed>9.970000</speed>
</trkpt>
<trkpt lat="43.149227" lon="19.293777">
<ele>716.8</ele>
<time>2012-05-03T00:46:50Z</time>
<desc>lat.=43.149227, lon.=19.293777, Alt.=775.977051m. Speed=52.487999m/h.</desc>
<speed>14.580000</speed>
</trkpt>
<trkpt lat="43.149693" lon="19.294468">
<ele>718.0</ele>
<time>2012-05-03T00:46:55Z</time>
<desc>lat.=43.149693, lon.=19.294468, Alt.=775.102051m. Speed=56.088001m/h.</desc>
<speed>15.580000</speed>
</trkpt>
<trkpt lat="43.150696" lon="19.295664">
<ele>706.9</ele>
<time>2012-05-03T00:47:05Z</time>
<desc>lat.=43.150696, lon.=19.295664, Alt.=774.852051m. Speed=47.448002m/h.</desc>
<speed>13.180001</speed>
</trkpt>
<trkpt lat="43.151230" lon="19.296005">
<ele>769.2</ele>
<time>2012-05-03T00:47:10Z</time>
<desc>lat.=43.151230, lon.=19.296005, Alt.=777.289551m. Speed=52.416000m/h.</desc>
<speed>14.560000</speed>
</trkpt>
<trkpt lat="43.152573" lon="19.296242">
<ele>791.0</ele>
<time>2012-05-03T00:47:20Z</time>
<desc>lat.=43.152573, lon.=19.296242, Alt.=781.836426m. Speed=52.596001m/h.</desc>
<speed>14.610000</speed>
</trkpt>
<trkpt lat="43.154278" lon="19.295502">
<ele>794.6</ele>
<time>2012-05-03T00:47:35Z</time>
<desc>lat.=43.154278, lon.=19.295502, Alt.=797.227051m. Speed=45.792000m/h.</desc>
<speed>12.720000</speed>
</trkpt>
<trkpt lat="43.155350" lon="19.296129">
<ele>807.8</ele>
<time>2012-05-03T00:47:45Z</time>
<desc>lat.=43.155350, lon.=19.296129, Alt.=806.945801m. Speed=45.936001m/h.</desc>
<speed>12.760000</speed>
</trkpt>
<trkpt lat="43.156479" lon="19.296415">
<ele>819.2</ele>
<time>2012-05-03T00:47:55Z</time>
<desc>lat.=43.156479, lon.=19.296415, Alt.=813.320801m. Speed=43.848000m/h.</desc>
<speed>12.180000</speed>
</trkpt>
<trkpt lat="43.157017" lon="19.296261">
<ele>814.4</ele>
<time>2012-05-03T00:48:00Z</time>
<desc>lat.=43.157017, lon.=19.296261, Alt.=816.930176m. Speed=45.647999m/h.</desc>
<speed>12.680000</speed>
</trkpt>
<trkpt lat="43.157444" lon="19.295742">
<ele>817.9</ele>
<time>2012-05-03T00:48:05Z</time>
<desc>lat.=43.157444, lon.=19.295742, Alt.=821.836426m. Speed=46.439999m/h.</desc>
<speed>12.900000</speed>
</trkpt>
<trkpt lat="43.157921" lon="19.294395">
<ele>829.2</ele>
<time>2012-05-03T00:48:15Z</time>
<desc>lat.=43.157921, lon.=19.294395, Alt.=829.852051m. Speed=42.875999m/h.</desc>
<speed>11.910000</speed>
</trkpt>
<trkpt lat="43.158344" lon="19.293978">
<ele>835.6</ele>
<time>2012-05-03T00:48:20Z</time>
<desc>lat.=43.158344, lon.=19.293978, Alt.=835.758301m. Speed=41.076000m/h.</desc>
<speed>11.410000</speed>
</trkpt>
<trkpt lat="43.158985" lon="19.293913">
<ele>843.1</ele>
<time>2012-05-03T00:48:35Z</time>
<desc>lat.=43.158985, lon.=19.293913, Alt.=842.195801m. Speed=3.240000m/h.</desc>
<speed>0.900000</speed>
</trkpt>
<trkpt lat="43.159004" lon="19.292671">
<ele>829.9</ele>
<time>2012-05-03T00:50:50Z</time>
<desc>lat.=43.159004, lon.=19.292671, Alt.=831.305176m. Speed=0.036000m/h.</desc>
<speed>0.010000</speed>
</trkpt>
</trkseg>
</trk>
</gpx>